<?xml version="1.0" encoding="UTF-8"?>
<gpx version="1.0" creator="GPSBabel - https://www.gpsbabel.org" xmlns="http://www.topografix.com/GPX/1/0">
  <time>2021-11-24T20:07:20.329Z</time>
  <bounds minlat="35.265305000" minlon="-106.478516000" maxlat="35.279000000" maxlon="-106.468970000"/>
  <trk>
    <name>track</name>
    <trkseg>
      <trkpt lat="35.279000000" lon="-106.478455000">
        <ele>1828.700</ele>
        <time>2013-03-03T17:22:16Z</time>
        <name>WPT</name>
      </trkpt>
      <trkpt lat="35.278976000" lon="-106.478470000">
        <ele>1827.100</ele>
        <time>2013-03-03T17:22:43Z</time>
        <name>WPT.1</name>
      </trkpt>
      <trkpt lat="35.278960000" lon="-106.478500000">
        <ele>1828.500</ele>
        <time>2013-03-03T17:22:46Z</time>
        <name>WPT.2</name>
      </trkpt>
      <trkpt lat="35.278927000" lon="-106.478510000">
        <ele>1828.500</ele>
        <time>2013-03-03T17:22:48Z</time>
        <name>WPT.3</name>
      </trkpt>
      <trkpt lat="35.278890000" lon="-106.478516000">
        <ele>1830.000</ele>
        <time>2013-03-03T17:22:50Z</time>
        <name>WPT.4</name>
      </trkpt>
      <trkpt lat="35.278862000" lon="-106.478490000">
        <ele>1831.200</ele>
        <time>2013-03-03T17:22:53Z</time>
        <name>WPT.5</name>
      </trkpt>
      <trkpt lat="35.278840000" lon="-106.478470000">
        <ele>1831.800</ele>
        <time>2013-03-03T17:22:56Z</time>
        <name>WPT.6</name>
      </trkpt>
      <trkpt lat="35.278828000" lon="-106.478440000">
        <ele>1832.700</ele>
        <time>2013-03-03T17:23:00Z</time>
        <name>WPT.7</name>
      </trkpt>
      <trkpt lat="35.278790000" lon="-106.478430000">
        <ele>1832.800</ele>
        <time>2013-03-03T17:23:13Z</time>
        <name>WPT.8</name>
      </trkpt>
      <trkpt lat="35.278755000" lon="-106.478420000">
        <ele>1832.300</ele>
        <time>2013-03-03T17:23:18Z</time>
        <name>WPT.9</name>
      </trkpt>
      <trkpt lat="35.278732000" lon="-106.478400000">
        <ele>1832.000</ele>
        <time>2013-03-03T17:23:20Z</time>
        <name>WPT.10</name>
      </trkpt>
      <trkpt lat="35.278700000" lon="-106.478380000">
        <ele>1832.600</ele>
        <time>2013-03-03T17:23:23Z</time>
        <name>WPT.11</name>
      </trkpt>
      <trkpt lat="35.278687000" lon="-106.478340000">
        <ele>1831.800</ele>
        <time>2013-03-03T17:23:26Z</time>
        <name>WPT.12</name>
      </trkpt>
      <trkpt lat="35.278680000" lon="-106.478300000">
        <ele>1832.600</ele>
        <time>2013-03-03T17:23:29Z</time>
        <name>WPT.13</name>
      </trkpt>
      <trkpt lat="35.278667000" lon="-106.478260000">
        <ele>1833.300</ele>
        <time>2013-03-03T17:23:33Z</time>
        <name>WPT.14</name>
      </trkpt>
      <trkpt lat="35.278650000" lon="-106.478230000">
        <ele>1835.400</ele>
        <time>2013-03-03T17:23:36Z</time>
        <name>WPT.15</name>
      </trkpt>
      <trkpt lat="35.278630000" lon="-106.478200000">
        <ele>1834.700</ele>
        <time>2013-03-03T17:23:39Z</time>
        <name>WPT.16</name>
      </trkpt>
      <trkpt lat="35.278610000" lon="-106.478170000">
        <ele>1835.500</ele>
        <time>2013-03-03T17:23:43Z</time>
        <name>WPT.17</name>
      </trkpt>
      <trkpt lat="35.278587000" lon="-106.478150000">
        <ele>1835.700</ele>
        <time>2013-03-03T17:23:46Z</time>
        <name>WPT.18</name>
      </trkpt>
      <trkpt lat="35.278557000" lon="-106.478130000">
        <ele>1835.700</ele>
        <time>2013-03-03T17:23:49Z</time>
        <name>WPT.19</name>
      </trkpt>
      <trkpt lat="35.278526000" lon="-106.478110000">
        <ele>1836.100</ele>
        <time>2013-03-03T17:23:53Z</time>
        <name>WPT.20</name>
      </trkpt>
      <trkpt lat="35.278496000" lon="-106.478090000">
        <ele>1837.100</ele>
        <time>2013-03-03T17:23:56Z</time>
        <name>WPT.21</name>
      </trkpt>
      <trkpt lat="35.278465000" lon="-106.478070000">
        <ele>1835.600</ele>
        <time>2013-03-03T17:23:59Z</time>
        <name>WPT.22</name>
      </trkpt>
      <trkpt lat="35.278435000" lon="-106.478060000">
        <ele>1837.900</ele>
        <time>2013-03-03T17:24:02Z</time>
        <name>WPT.23</name>
      </trkpt>
      <trkpt lat="35.278404000" lon="-106.478030000">
        <ele>1838.400</ele>
        <time>2013-03-03T17:24:05Z</time>
        <name>WPT.24</name>
      </trkpt>
      <trkpt lat="35.278374000" lon="-106.478004000">
        <ele>1838.200</ele>
        <time>2013-03-03T17:24:08Z</time>
        <name>WPT.25</name>
      </trkpt>
      <trkpt lat="35.278343000" lon="-106.477980000">
        <ele>1839.900</ele>
        <time>2013-03-03T17:24:11Z</time>
        <name>WPT.26</name>
      </trkpt>
      <trkpt lat="35.278320000" lon="-106.477960000">
        <ele>1839.500</ele>
        <time>2013-03-03T17:24:14Z</time>
        <name>WPT.27</name>
      </trkpt>
      <trkpt lat="35.278290000" lon="-106.477930000">
        <ele>1840.200</ele>
        <time>2013-03-03T17:24:17Z</time>
        <name>WPT.28</name>
      </trkpt>
      <trkpt lat="35.278263000" lon="-106.477900000">
        <ele>1839.800</ele>
        <time>2013-03-03T17:24:20Z</time>
        <name>WPT.29</name>
      </trkpt>
      <trkpt lat="35.278233000" lon="-106.477875000">
        <ele>1839.900</ele>
        <time>2013-03-03T17:24:23Z</time>
        <name>WPT.30</name>
      </trkpt>
      <trkpt lat="35.278206000" lon="-106.477844000">
        <ele>1838.800</ele>
        <time>2013-03-03T17:24:26Z</time>
        <name>WPT.31</name>
      </trkpt>
      <trkpt lat="35.278187000" lon="-106.477820000">
        <ele>1840.000</ele>
        <time>2013-03-03T17:24:28Z</time>
        <name>WPT.32</name>
      </trkpt>
      <trkpt lat="35.278133000" lon="-106.477740000">
        <ele>1841.300</ele>
        <time>2013-03-03T17:24:36Z</time>
        <name>WPT.33</name>
      </trkpt>
      <trkpt lat="35.278065000" lon="-106.477670000">
        <ele>1846.000</ele>
        <time>2013-03-03T17:24:44Z</time>
        <name>WPT.34</name>
      </trkpt>
      <trkpt lat="35.277992000" lon="-106.477600000">
        <ele>1843.700</ele>
        <time>2013-03-03T17:24:51Z</time>
        <name>WPT.35</name>
      </trkpt>
      <trkpt lat="35.277954000" lon="-106.477510000">
        <ele>1846.300</ele>
        <time>2013-03-03T17:25:00Z</time>
        <name>WPT.36</name>
      </trkpt>
      <trkpt lat="35.277910000" lon="-106.477420000">
        <ele>1849.400</ele>
        <time>2013-03-03T17:25:08Z</time>
        <name>WPT.37</name>
      </trkpt>
      <trkpt lat="35.277880000" lon="-106.477310000">
        <ele>1848.600</ele>
        <time>2013-03-03T17:25:16Z</time>
        <name>WPT.38</name>
      </trkpt>
      <trkpt lat="35.277860000" lon="-106.477210000">
        <ele>1848.900</ele>
        <time>2013-03-03T17:25:22Z</time>
        <name>WPT.39</name>
      </trkpt>
      <trkpt lat="35.277830000" lon="-106.477110000">
        <ele>1849.200</ele>
        <time>2013-03-03T17:25:29Z</time>
        <name>WPT.40</name>
      </trkpt>
      <trkpt lat="35.277798000" lon="-106.477020000">
        <ele>1848.000</ele>
        <time>2013-03-03T17:25:36Z</time>
        <name>WPT.41</name>
      </trkpt>
      <trkpt lat="35.277780000" lon="-106.476920000">
        <ele>1846.500</ele>
        <time>2013-03-03T17:25:44Z</time>
        <name>WPT.42</name>
      </trkpt>
      <trkpt lat="35.277740000" lon="-106.476820000">
        <ele>1848.300</ele>
        <time>2013-03-03T17:25:51Z</time>
        <name>WPT.43</name>
      </trkpt>
      <trkpt lat="35.277702000" lon="-106.476710000">
        <ele>1849.000</ele>
        <time>2013-03-03T17:25:59Z</time>
        <name>WPT.44</name>
      </trkpt>
      <trkpt lat="35.277683000" lon="-106.476610000">
        <ele>1848.800</ele>
        <time>2013-03-03T17:26:07Z</time>
        <name>WPT.45</name>
      </trkpt>
      <trkpt lat="35.277670000" lon="-106.476510000">
        <ele>1851.800</ele>
        <time>2013-03-03T17:26:14Z</time>
        <name>WPT.46</name>
      </trkpt>
      <trkpt lat="35.277657000" lon="-106.476400000">
        <ele>1848.900</ele>
        <time>2013-03-03T17:26:23Z</time>
        <name>WPT.47</name>
      </trkpt>
      <trkpt lat="35.277634000" lon="-106.476295000">
        <ele>1848.800</ele>
        <time>2013-03-03T17:26:31Z</time>
        <name>WPT.48</name>
      </trkpt>
      <trkpt lat="35.277620000" lon="-106.476190000">
        <ele>1850.000</ele>
        <time>2013-03-03T17:26:38Z</time>
        <name>WPT.49</name>
      </trkpt>
      <trkpt lat="35.277603000" lon="-106.476080000">
        <ele>1849.100</ele>
        <time>2013-03-03T17:26:45Z</time>
        <name>WPT.50</name>
      </trkpt>
      <trkpt lat="35.277560000" lon="-106.475980000">
        <ele>1841.800</ele>
        <time>2013-03-03T17:26:53Z</time>
        <name>WPT.51</name>
      </trkpt>
      <trkpt lat="35.277554000" lon="-106.475876000">
        <ele>1840.400</ele>
        <time>2013-03-03T17:27:01Z</time>
        <name>WPT.52</name>
      </trkpt>
      <trkpt lat="35.277546000" lon="-106.475780000">
        <ele>1841.500</ele>
        <time>2013-03-03T17:27:08Z</time>
        <name>WPT.53</name>
      </trkpt>
      <trkpt lat="35.277527000" lon="-106.475680000">
        <ele>1843.600</ele>
        <time>2013-03-03T17:27:15Z</time>
        <name>WPT.54</name>
      </trkpt>
      <trkpt lat="35.277490000" lon="-106.475586000">
        <ele>1842.400</ele>
        <time>2013-03-03T17:27:22Z</time>
        <name>WPT.55</name>
      </trkpt>
      <trkpt lat="35.277447000" lon="-106.475490000">
        <ele>1842.100</ele>
        <time>2013-03-03T17:27:30Z</time>
        <name>WPT.56</name>
      </trkpt>
      <trkpt lat="35.277397000" lon="-106.475395000">
        <ele>1844.600</ele>
        <time>2013-03-03T17:27:38Z</time>
        <name>WPT.57</name>
      </trkpt>
      <trkpt lat="35.277332000" lon="-106.475330000">
        <ele>1847.600</ele>
        <time>2013-03-03T17:27:46Z</time>
        <name>WPT.58</name>
      </trkpt>
      <trkpt lat="35.277267000" lon="-106.475266000">
        <ele>1849.800</ele>
        <time>2013-03-03T17:27:55Z</time>
        <name>WPT.59</name>
      </trkpt>
      <trkpt lat="35.277214000" lon="-106.475190000">
        <ele>1850.800</ele>
        <time>2013-03-03T17:28:03Z</time>
        <name>WPT.60</name>
      </trkpt>
      <trkpt lat="35.277160000" lon="-106.475105000">
        <ele>1849.500</ele>
        <time>2013-03-03T17:28:11Z</time>
        <name>WPT.61</name>
      </trkpt>
      <trkpt lat="35.277100000" lon="-106.475030000">
        <ele>1851.800</ele>
        <time>2013-03-03T17:28:23Z</time>
        <name>WPT.62</name>
      </trkpt>
      <trkpt lat="35.277030000" lon="-106.474970000">
        <ele>1853.200</ele>
        <time>2013-03-03T17:28:30Z</time>
        <name>WPT.63</name>
      </trkpt>
      <trkpt lat="35.276950000" lon="-106.474915000">
        <ele>1855.100</ele>
        <time>2013-03-03T17:28:36Z</time>
        <name>WPT.64</name>
      </trkpt>
      <trkpt lat="35.276867000" lon="-106.474884000">
        <ele>1857.000</ele>
        <time>2013-03-03T17:28:44Z</time>
        <name>WPT.65</name>
      </trkpt>
      <trkpt lat="35.276787000" lon="-106.474870000">
        <ele>1858.800</ele>
        <time>2013-03-03T17:28:52Z</time>
        <name>WPT.66</name>
      </trkpt>
      <trkpt lat="35.276703000" lon="-106.474860000">
        <ele>1858.600</ele>
        <time>2013-03-03T17:28:59Z</time>
        <name>WPT.67</name>
      </trkpt>
      <trkpt lat="35.276620000" lon="-106.474860000">
        <ele>1857.400</ele>
        <time>2013-03-03T17:29:07Z</time>
        <name>WPT.68</name>
      </trkpt>
      <trkpt lat="35.276535000" lon="-106.474840000">
        <ele>1858.100</ele>
        <time>2013-03-03T17:29:15Z</time>
        <name>WPT.69</name>
      </trkpt>
      <trkpt lat="35.276524000" lon="-106.474740000">
        <ele>1859.600</ele>
        <time>2013-03-03T17:29:23Z</time>
        <name>WPT.70</name>
      </trkpt>
      <trkpt lat="35.276596000" lon="-106.474680000">
        <ele>1860.700</ele>
        <time>2013-03-03T17:29:36Z</time>
        <name>WPT.71</name>
      </trkpt>
      <trkpt lat="35.276670000" lon="-106.474630000">
        <ele>1861.400</ele>
        <time>2013-03-03T17:29:44Z</time>
        <name>WPT.72</name>
      </trkpt>
      <trkpt lat="35.276672000" lon="-106.474530000">
        <ele>1864.000</ele>
        <time>2013-03-03T17:29:55Z</time>
        <name>WPT.73</name>
      </trkpt>
      <trkpt lat="35.276676000" lon="-106.474480000">
        <ele>1873.100</ele>
        <time>2013-03-03T17:30:06Z</time>
        <name>WPT.74</name>
      </trkpt>
      <trkpt lat="35.276756000" lon="-106.474450000">
        <ele>1874.600</ele>
        <time>2013-03-03T17:30:19Z</time>
        <name>WPT.75</name>
      </trkpt>
      <trkpt lat="35.276844000" lon="-106.474470000">
        <ele>1874.500</ele>
        <time>2013-03-03T17:30:38Z</time>
        <name>WPT.76</name>
      </trkpt>
      <trkpt lat="35.276924000" lon="-106.474480000">
        <ele>1877.700</ele>
        <time>2013-03-03T17:30:46Z</time>
        <name>WPT.77</name>
      </trkpt>
      <trkpt lat="35.276910000" lon="-106.474380000">
        <ele>1873.300</ele>
        <time>2013-03-03T17:31:00Z</time>
        <name>WPT.78</name>
      </trkpt>
      <trkpt lat="35.276850000" lon="-106.474304000">
        <ele>1870.300</ele>
        <time>2013-03-03T17:31:28Z</time>
        <name>WPT.79</name>
      </trkpt>
      <trkpt lat="35.276794000" lon="-106.474210000">
        <ele>1868.400</ele>
        <time>2013-03-03T17:31:37Z</time>
        <name>WPT.80</name>
      </trkpt>
      <trkpt lat="35.276720000" lon="-106.474170000">
        <ele>1864.300</ele>
        <time>2013-03-03T17:31:46Z</time>
        <name>WPT.81</name>
      </trkpt>
      <trkpt lat="35.276627000" lon="-106.474160000">
        <ele>1869.100</ele>
        <time>2013-03-03T17:31:55Z</time>
        <name>WPT.82</name>
      </trkpt>
      <trkpt lat="35.276550000" lon="-106.474130000">
        <ele>1865.500</ele>
        <time>2013-03-03T17:32:13Z</time>
        <name>WPT.83</name>
      </trkpt>
      <trkpt lat="35.276474000" lon="-106.474080000">
        <ele>1864.600</ele>
        <time>2013-03-03T17:32:24Z</time>
        <name>WPT.84</name>
      </trkpt>
      <trkpt lat="35.276410000" lon="-106.474020000">
        <ele>1867.600</ele>
        <time>2013-03-03T17:32:32Z</time>
        <name>WPT.85</name>
      </trkpt>
      <trkpt lat="35.276356000" lon="-106.473930000">
        <ele>1868.900</ele>
        <time>2013-03-03T17:32:42Z</time>
        <name>WPT.86</name>
      </trkpt>
      <trkpt lat="35.276310000" lon="-106.473850000">
        <ele>1870.300</ele>
        <time>2013-03-03T17:32:53Z</time>
        <name>WPT.87</name>
      </trkpt>
      <trkpt lat="35.276240000" lon="-106.473785000">
        <ele>1870.400</ele>
        <time>2013-03-03T17:33:03Z</time>
        <name>WPT.88</name>
      </trkpt>
      <trkpt lat="35.276173000" lon="-106.473730000">
        <ele>1873.600</ele>
        <time>2013-03-03T17:33:33Z</time>
        <name>WPT.89</name>
      </trkpt>
      <trkpt lat="35.276090000" lon="-106.473670000">
        <ele>1877.700</ele>
        <time>2013-03-03T17:34:33Z</time>
        <name>WPT.90</name>
      </trkpt>
      <trkpt lat="35.276040000" lon="-106.473595000">
        <ele>1881.300</ele>
        <time>2013-03-03T17:34:40Z</time>
        <name>WPT.91</name>
      </trkpt>
      <trkpt lat="35.275955000" lon="-106.473580000">
        <ele>1887.500</ele>
        <time>2013-03-03T17:34:50Z</time>
        <name>WPT.92</name>
      </trkpt>
      <trkpt lat="35.275870000" lon="-106.473590000">
        <ele>1885.300</ele>
        <time>2013-03-03T17:35:00Z</time>
        <name>WPT.93</name>
      </trkpt>
      <trkpt lat="35.275790000" lon="-106.473610000">
        <ele>1885.200</ele>
        <time>2013-03-03T17:35:07Z</time>
        <name>WPT.94</name>
      </trkpt>
      <trkpt lat="35.275710000" lon="-106.473630000">
        <ele>1886.200</ele>
        <time>2013-03-03T17:35:14Z</time>
        <name>WPT.95</name>
      </trkpt>
      <trkpt lat="35.275635000" lon="-106.473595000">
        <ele>1891.300</ele>
        <time>2013-03-03T17:35:23Z</time>
        <name>WPT.96</name>
      </trkpt>
      <trkpt lat="35.275547000" lon="-106.473600000">
        <ele>1890.600</ele>
        <time>2013-03-03T17:35:31Z</time>
        <name>WPT.97</name>
      </trkpt>
      <trkpt lat="35.275463000" lon="-106.473625000">
        <ele>1888.000</ele>
        <time>2013-03-03T17:35:39Z</time>
        <name>WPT.98</name>
      </trkpt>
      <trkpt lat="35.275375000" lon="-106.473620000">
        <ele>1886.200</ele>
        <time>2013-03-03T17:35:48Z</time>
        <name>WPT.99</name>
      </trkpt>
      <trkpt lat="35.275288000" lon="-106.473620000">
        <ele>1886.400</ele>
        <time>2013-03-03T17:35:58Z</time>
        <name>WPT.100</name>
      </trkpt>
      <trkpt lat="35.275200000" lon="-106.473625000">
        <ele>1889.400</ele>
        <time>2013-03-03T17:36:07Z</time>
        <name>WPT.101</name>
      </trkpt>
      <trkpt lat="35.275116000" lon="-106.473595000">
        <ele>1889.800</ele>
        <time>2013-03-03T17:36:16Z</time>
        <name>WPT.102</name>
      </trkpt>
      <trkpt lat="35.275040000" lon="-106.473550000">
        <ele>1889.800</ele>
        <time>2013-03-03T17:36:24Z</time>
        <name>WPT.103</name>
      </trkpt>
      <trkpt lat="35.274980000" lon="-106.473490000">
        <ele>1888.500</ele>
        <time>2013-03-03T17:36:32Z</time>
        <name>WPT.104</name>
      </trkpt>
      <trkpt lat="35.274910000" lon="-106.473430000">
        <ele>1891.000</ele>
        <time>2013-03-03T17:36:40Z</time>
        <name>WPT.105</name>
      </trkpt>
      <trkpt lat="35.274826000" lon="-106.473390000">
        <ele>1895.300</ele>
        <time>2013-03-03T17:36:50Z</time>
        <name>WPT.106</name>
      </trkpt>
      <trkpt lat="35.274750000" lon="-106.473335000">
        <ele>1897.700</ele>
        <time>2013-03-03T17:36:59Z</time>
        <name>WPT.107</name>
      </trkpt>
      <trkpt lat="35.274673000" lon="-106.473290000">
        <ele>1897.900</ele>
        <time>2013-03-03T17:37:08Z</time>
        <name>WPT.108</name>
      </trkpt>
      <trkpt lat="35.274616000" lon="-106.473206000">
        <ele>1900.100</ele>
        <time>2013-03-03T17:37:18Z</time>
        <name>WPT.109</name>
      </trkpt>
      <trkpt lat="35.274563000" lon="-106.473114000">
        <ele>1900.200</ele>
        <time>2013-03-03T17:37:28Z</time>
        <name>WPT.110</name>
      </trkpt>
      <trkpt lat="35.274520000" lon="-106.473030000">
        <ele>1901.000</ele>
        <time>2013-03-03T17:37:37Z</time>
        <name>WPT.111</name>
      </trkpt>
      <trkpt lat="35.274452000" lon="-106.472960000">
        <ele>1900.900</ele>
        <time>2013-03-03T17:37:46Z</time>
        <name>WPT.112</name>
      </trkpt>
      <trkpt lat="35.274400000" lon="-106.472946000">
        <ele>1901.400</ele>
        <time>2013-03-03T17:38:01Z</time>
        <name>WPT.113</name>
      </trkpt>
      <trkpt lat="35.274372000" lon="-106.472960000">
        <ele>1902.400</ele>
        <time>2013-03-03T17:38:05Z</time>
        <name>WPT.114</name>
      </trkpt>
      <trkpt lat="35.274338000" lon="-106.472984000">
        <ele>1901.100</ele>
        <time>2013-03-03T17:38:11Z</time>
        <name>WPT.115</name>
      </trkpt>
      <trkpt lat="35.274307000" lon="-106.473010000">
        <ele>1900.800</ele>
        <time>2013-03-03T17:38:21Z</time>
        <name>WPT.116</name>
      </trkpt>
      <trkpt lat="35.274273000" lon="-106.473010000">
        <ele>1902.600</ele>
        <time>2013-03-03T17:38:27Z</time>
        <name>WPT.117</name>
      </trkpt>
      <trkpt lat="35.274246000" lon="-106.473000000">
        <ele>1902.500</ele>
        <time>2013-03-03T17:38:29Z</time>
        <name>WPT.118</name>
      </trkpt>
      <trkpt lat="35.274208000" lon="-106.472984000">
        <ele>1902.100</ele>
        <time>2013-03-03T17:38:32Z</time>
        <name>WPT.119</name>
      </trkpt>
      <trkpt lat="35.274174000" lon="-106.472980000">
        <ele>1902.600</ele>
        <time>2013-03-03T17:38:35Z</time>
        <name>WPT.120</name>
      </trkpt>
      <trkpt lat="35.274130000" lon="-106.472980000">
        <ele>1903.600</ele>
        <time>2013-03-03T17:38:38Z</time>
        <name>WPT.121</name>
      </trkpt>
      <trkpt lat="35.274110000" lon="-106.472980000">
        <ele>1906.600</ele>
        <time>2013-03-03T17:38:40Z</time>
        <name>WPT.122</name>
      </trkpt>
      <trkpt lat="35.274070000" lon="-106.472980000">
        <ele>1908.700</ele>
        <time>2013-03-03T17:38:43Z</time>
        <name>WPT.123</name>
      </trkpt>
      <trkpt lat="35.274044000" lon="-106.472960000">
        <ele>1909.000</ele>
        <time>2013-03-03T17:38:46Z</time>
        <name>WPT.124</name>
      </trkpt>
      <trkpt lat="35.274006000" lon="-106.472970000">
        <ele>1910.300</ele>
        <time>2013-03-03T17:38:49Z</time>
        <name>WPT.125</name>
      </trkpt>
      <trkpt lat="35.273970000" lon="-106.472984000">
        <ele>1910.700</ele>
        <time>2013-03-03T17:38:52Z</time>
        <name>WPT.126</name>
      </trkpt>
      <trkpt lat="35.273950000" lon="-106.473010000">
        <ele>1909.800</ele>
        <time>2013-03-03T17:38:55Z</time>
        <name>WPT.127</name>
      </trkpt>
      <trkpt lat="35.273920000" lon="-106.473030000">
        <ele>1909.600</ele>
        <time>2013-03-03T17:38:59Z</time>
        <name>WPT.128</name>
      </trkpt>
      <trkpt lat="35.273880000" lon="-106.473040000">
        <ele>1909.200</ele>
        <time>2013-03-03T17:39:03Z</time>
        <name>WPT.129</name>
      </trkpt>
      <trkpt lat="35.273850000" lon="-106.473050000">
        <ele>1908.600</ele>
        <time>2013-03-03T17:39:06Z</time>
        <name>WPT.130</name>
      </trkpt>
      <trkpt lat="35.273820000" lon="-106.473076000">
        <ele>1908.000</ele>
        <time>2013-03-03T17:39:09Z</time>
        <name>WPT.131</name>
      </trkpt>
      <trkpt lat="35.273796000" lon="-106.473090000">
        <ele>1908.400</ele>
        <time>2013-03-03T17:39:13Z</time>
        <name>WPT.132</name>
      </trkpt>
      <trkpt lat="35.273770000" lon="-106.473110000">
        <ele>1907.300</ele>
        <time>2013-03-03T17:39:16Z</time>
        <name>WPT.133</name>
      </trkpt>
      <trkpt lat="35.273740000" lon="-106.473120000">
        <ele>1907.600</ele>
        <time>2013-03-03T17:39:19Z</time>
        <name>WPT.134</name>
      </trkpt>
      <trkpt lat="35.273712000" lon="-106.473130000">
        <ele>1906.600</ele>
        <time>2013-03-03T17:39:22Z</time>
        <name>WPT.135</name>
      </trkpt>
      <trkpt lat="35.273678000" lon="-106.473150000">
        <ele>1906.000</ele>
        <time>2013-03-03T17:39:26Z</time>
        <name>WPT.136</name>
      </trkpt>
      <trkpt lat="35.273655000" lon="-106.473175000">
        <ele>1907.500</ele>
        <time>2013-03-03T17:39:29Z</time>
        <name>WPT.137</name>
      </trkpt>
      <trkpt lat="35.273624000" lon="-106.473180000">
        <ele>1903.300</ele>
        <time>2013-03-03T17:39:32Z</time>
        <name>WPT.138</name>
      </trkpt>
      <trkpt lat="35.273598000" lon="-106.473200000">
        <ele>1901.200</ele>
        <time>2013-03-03T17:39:36Z</time>
        <name>WPT.139</name>
      </trkpt>
      <trkpt lat="35.273556000" lon="-106.473220000">
        <ele>1903.100</ele>
        <time>2013-03-03T17:39:41Z</time>
        <name>WPT.140</name>
      </trkpt>
      <trkpt lat="35.273530000" lon="-106.473236000">
        <ele>1904.300</ele>
        <time>2013-03-03T17:39:44Z</time>
        <name>WPT.141</name>
      </trkpt>
      <trkpt lat="35.273487000" lon="-106.473240000">
        <ele>1905.000</ele>
        <time>2013-03-03T17:39:48Z</time>
        <name>WPT.142</name>
      </trkpt>
      <trkpt lat="35.273460000" lon="-106.473240000">
        <ele>1905.900</ele>
        <time>2013-03-03T17:39:50Z</time>
        <name>WPT.143</name>
      </trkpt>
      <trkpt lat="35.273430000" lon="-106.473250000">
        <ele>1905.800</ele>
        <time>2013-03-03T17:39:52Z</time>
        <name>WPT.144</name>
      </trkpt>
      <trkpt lat="35.273403000" lon="-106.473250000">
        <ele>1906.400</ele>
        <time>2013-03-03T17:39:54Z</time>
        <name>WPT.145</name>
      </trkpt>
      <trkpt lat="35.273315000" lon="-106.473274000">
        <ele>1908.400</ele>
        <time>2013-03-03T17:40:04Z</time>
        <name>WPT.146</name>
      </trkpt>
      <trkpt lat="35.273260000" lon="-106.473335000">
        <ele>1912.200</ele>
        <time>2013-03-03T17:40:12Z</time>
        <name>WPT.147</name>
      </trkpt>
      <trkpt lat="35.273247000" lon="-106.473366000">
        <ele>1915.000</ele>
        <time>2013-03-03T17:40:16Z</time>
        <name>WPT.148</name>
      </trkpt>
      <trkpt lat="35.273247000" lon="-106.473404000">
        <ele>1916.400</ele>
        <time>2013-03-03T17:40:27Z</time>
        <name>WPT.149</name>
      </trkpt>
      <trkpt lat="35.273247000" lon="-106.473440000">
        <ele>1917.800</ele>
        <time>2013-03-03T17:40:31Z</time>
        <name>WPT.150</name>
      </trkpt>
      <trkpt lat="35.273224000" lon="-106.473465000">
        <ele>1917.700</ele>
        <time>2013-03-03T17:40:34Z</time>
        <name>WPT.151</name>
      </trkpt>
      <trkpt lat="35.273200000" lon="-106.473450000">
        <ele>1918.200</ele>
        <time>2013-03-03T17:40:38Z</time>
        <name>WPT.152</name>
      </trkpt>
      <trkpt lat="35.273186000" lon="-106.473420000">
        <ele>1918.700</ele>
        <time>2013-03-03T17:40:42Z</time>
        <name>WPT.153</name>
      </trkpt>
      <trkpt lat="35.273182000" lon="-106.473390000">
        <ele>1920.200</ele>
        <time>2013-03-03T17:40:45Z</time>
        <name>WPT.154</name>
      </trkpt>
      <trkpt lat="35.273160000" lon="-106.473360000">
        <ele>1920.700</ele>
        <time>2013-03-03T17:40:51Z</time>
        <name>WPT.155</name>
      </trkpt>
      <trkpt lat="35.273140000" lon="-106.473335000">
        <ele>1922.500</ele>
        <time>2013-03-03T17:40:59Z</time>
        <name>WPT.156</name>
      </trkpt>
      <trkpt lat="35.273130000" lon="-106.473305000">
        <ele>1925.100</ele>
        <time>2013-03-03T17:41:03Z</time>
        <name>WPT.157</name>
      </trkpt>
      <trkpt lat="35.273113000" lon="-106.473260000">
        <ele>1926.500</ele>
        <time>2013-03-03T17:41:09Z</time>
        <name>WPT.158</name>
      </trkpt>
      <trkpt lat="35.273087000" lon="-106.473240000">
        <ele>1928.000</ele>
        <time>2013-03-03T17:41:16Z</time>
        <name>WPT.159</name>
      </trkpt>
      <trkpt lat="35.273052000" lon="-106.473250000">
        <ele>1928.100</ele>
        <time>2013-03-03T17:41:33Z</time>
        <name>WPT.160</name>
      </trkpt>
      <trkpt lat="35.273026000" lon="-106.473280000">
        <ele>1929.800</ele>
        <time>2013-03-03T17:41:37Z</time>
        <name>WPT.161</name>
      </trkpt>
      <trkpt lat="35.273006000" lon="-106.473305000">
        <ele>1930.000</ele>
        <time>2013-03-03T17:41:41Z</time>
        <name>WPT.162</name>
      </trkpt>
      <trkpt lat="35.272980000" lon="-106.473330000">
        <ele>1930.500</ele>
        <time>2013-03-03T17:41:48Z</time>
        <name>WPT.163</name>
      </trkpt>
      <trkpt lat="35.272957000" lon="-106.473370000">
        <ele>1931.500</ele>
        <time>2013-03-03T17:41:52Z</time>
        <name>WPT.164</name>
      </trkpt>
      <trkpt lat="35.272930000" lon="-106.473400000">
        <ele>1933.900</ele>
        <time>2013-03-03T17:41:57Z</time>
        <name>WPT.165</name>
      </trkpt>
      <trkpt lat="35.272903000" lon="-106.473420000">
        <ele>1933.900</ele>
        <time>2013-03-03T17:42:02Z</time>
        <name>WPT.166</name>
      </trkpt>
      <trkpt lat="35.272896000" lon="-106.473450000">
        <ele>1934.600</ele>
        <time>2013-03-03T17:42:15Z</time>
        <name>WPT.167</name>
      </trkpt>
      <trkpt lat="35.272900000" lon="-106.473490000">
        <ele>1935.300</ele>
        <time>2013-03-03T17:42:19Z</time>
        <name>WPT.168</name>
      </trkpt>
      <trkpt lat="35.272865000" lon="-106.473510000">
        <ele>1934.800</ele>
        <time>2013-03-03T17:42:45Z</time>
        <name>WPT.169</name>
      </trkpt>
      <trkpt lat="35.272830000" lon="-106.473520000">
        <ele>1934.000</ele>
        <time>2013-03-03T17:42:48Z</time>
        <name>WPT.170</name>
      </trkpt>
      <trkpt lat="35.272762000" lon="-106.473590000">
        <ele>1934.100</ele>
        <time>2013-03-03T17:43:00Z</time>
        <name>WPT.171</name>
      </trkpt>
      <trkpt lat="35.272728000" lon="-106.473600000">
        <ele>1936.200</ele>
        <time>2013-03-03T17:43:03Z</time>
        <name>WPT.172</name>
      </trkpt>
      <trkpt lat="35.272705000" lon="-106.473625000">
        <ele>1936.500</ele>
        <time>2013-03-03T17:43:06Z</time>
        <name>WPT.173</name>
      </trkpt>
      <trkpt lat="35.272686000" lon="-106.473650000">
        <ele>1936.700</ele>
        <time>2013-03-03T17:43:13Z</time>
        <name>WPT.174</name>
      </trkpt>
      <trkpt lat="35.272655000" lon="-106.473660000">
        <ele>1937.900</ele>
        <time>2013-03-03T17:43:24Z</time>
        <name>WPT.175</name>
      </trkpt>
      <trkpt lat="35.272630000" lon="-106.473690000">
        <ele>1937.900</ele>
        <time>2013-03-03T17:43:28Z</time>
        <name>WPT.176</name>
      </trkpt>
      <trkpt lat="35.272606000" lon="-106.473710000">
        <ele>1938.500</ele>
        <time>2013-03-03T17:43:32Z</time>
        <name>WPT.177</name>
      </trkpt>
      <trkpt lat="35.272580000" lon="-106.473730000">
        <ele>1939.900</ele>
        <time>2013-03-03T17:43:36Z</time>
        <name>WPT.178</name>
      </trkpt>
      <trkpt lat="35.272556000" lon="-106.473760000">
        <ele>1940.700</ele>
        <time>2013-03-03T17:43:39Z</time>
        <name>WPT.179</name>
      </trkpt>
      <trkpt lat="35.272540000" lon="-106.473800000">
        <ele>1942.900</ele>
        <time>2013-03-03T17:43:43Z</time>
        <name>WPT.180</name>
      </trkpt>
      <trkpt lat="35.272537000" lon="-106.473840000">
        <ele>1942.800</ele>
        <time>2013-03-03T17:43:46Z</time>
        <name>WPT.181</name>
      </trkpt>
      <trkpt lat="35.272522000" lon="-106.473870000">
        <ele>1944.700</ele>
        <time>2013-03-03T17:43:52Z</time>
        <name>WPT.182</name>
      </trkpt>
      <trkpt lat="35.272507000" lon="-106.473890000">
        <ele>1944.700</ele>
        <time>2013-03-03T17:43:56Z</time>
        <name>WPT.183</name>
      </trkpt>
      <trkpt lat="35.272495000" lon="-106.473930000">
        <ele>1945.700</ele>
        <time>2013-03-03T17:44:01Z</time>
        <name>WPT.184</name>
      </trkpt>
      <trkpt lat="35.272480000" lon="-106.473970000">
        <ele>1945.800</ele>
        <time>2013-03-03T17:44:05Z</time>
        <name>WPT.185</name>
      </trkpt>
      <trkpt lat="35.272457000" lon="-106.474000000">
        <ele>1946.500</ele>
        <time>2013-03-03T17:44:09Z</time>
        <name>WPT.186</name>
      </trkpt>
      <trkpt lat="35.272438000" lon="-106.474020000">
        <ele>1945.400</ele>
        <time>2013-03-03T17:44:16Z</time>
        <name>WPT.187</name>
      </trkpt>
      <trkpt lat="35.272400000" lon="-106.474050000">
        <ele>1948.200</ele>
        <time>2013-03-03T17:44:23Z</time>
        <name>WPT.188</name>
      </trkpt>
      <trkpt lat="35.272373000" lon="-106.474050000">
        <ele>1947.600</ele>
        <time>2013-03-03T17:44:28Z</time>
        <name>WPT.189</name>
      </trkpt>
      <trkpt lat="35.272343000" lon="-106.474050000">
        <ele>1948.000</ele>
        <time>2013-03-03T17:44:32Z</time>
        <name>WPT.190</name>
      </trkpt>
      <trkpt lat="35.272305000" lon="-106.474060000">
        <ele>1947.500</ele>
        <time>2013-03-03T17:44:36Z</time>
        <name>WPT.191</name>
      </trkpt>
      <trkpt lat="35.272278000" lon="-106.474050000">
        <ele>1947.200</ele>
        <time>2013-03-03T17:44:40Z</time>
        <name>WPT.192</name>
      </trkpt>
      <trkpt lat="35.272243000" lon="-106.474045000">
        <ele>1948.800</ele>
        <time>2013-03-03T17:44:44Z</time>
        <name>WPT.193</name>
      </trkpt>
      <trkpt lat="35.272213000" lon="-106.474070000">
        <ele>1949.100</ele>
        <time>2013-03-03T17:44:49Z</time>
        <name>WPT.194</name>
      </trkpt>
      <trkpt lat="35.272182000" lon="-106.474075000">
        <ele>1948.400</ele>
        <time>2013-03-03T17:44:52Z</time>
        <name>WPT.195</name>
      </trkpt>
      <trkpt lat="35.272156000" lon="-106.474060000">
        <ele>1947.900</ele>
        <time>2013-03-03T17:44:55Z</time>
        <name>WPT.196</name>
      </trkpt>
      <trkpt lat="35.272120000" lon="-106.474075000">
        <ele>1947.400</ele>
        <time>2013-03-03T17:45:00Z</time>
        <name>WPT.197</name>
      </trkpt>
      <trkpt lat="35.272090000" lon="-106.474100000">
        <ele>1948.400</ele>
        <time>2013-03-03T17:45:03Z</time>
        <name>WPT.198</name>
      </trkpt>
      <trkpt lat="35.272064000" lon="-106.474120000">
        <ele>1950.100</ele>
        <time>2013-03-03T17:45:06Z</time>
        <name>WPT.199</name>
      </trkpt>
      <trkpt lat="35.272040000" lon="-106.474150000">
        <ele>1951.900</ele>
        <time>2013-03-03T17:45:10Z</time>
        <name>WPT.200</name>
      </trkpt>
      <trkpt lat="35.271960000" lon="-106.474180000">
        <ele>1954.800</ele>
        <time>2013-03-03T17:45:22Z</time>
        <name>WPT.201</name>
      </trkpt>
      <trkpt lat="35.271890000" lon="-106.474230000">
        <ele>1960.700</ele>
        <time>2013-03-03T17:45:42Z</time>
        <name>WPT.202</name>
      </trkpt>
      <trkpt lat="35.271805000" lon="-106.474250000">
        <ele>1958.500</ele>
        <time>2013-03-03T17:45:54Z</time>
        <name>WPT.203</name>
      </trkpt>
      <trkpt lat="35.271774000" lon="-106.474266000">
        <ele>1960.300</ele>
        <time>2013-03-03T17:45:57Z</time>
        <name>WPT.204</name>
      </trkpt>
      <trkpt lat="35.271744000" lon="-106.474270000">
        <ele>1960.400</ele>
        <time>2013-03-03T17:46:00Z</time>
        <name>WPT.205</name>
      </trkpt>
      <trkpt lat="35.271713000" lon="-106.474280000">
        <ele>1960.300</ele>
        <time>2013-03-03T17:46:03Z</time>
        <name>WPT.206</name>
      </trkpt>
      <trkpt lat="35.271690000" lon="-106.474304000">
        <ele>1961.200</ele>
        <time>2013-03-03T17:46:06Z</time>
        <name>WPT.207</name>
      </trkpt>
      <trkpt lat="35.271667000" lon="-106.474330000">
        <ele>1962.100</ele>
        <time>2013-03-03T17:46:09Z</time>
        <name>WPT.208</name>
      </trkpt>
      <trkpt lat="35.271633000" lon="-106.474335000">
        <ele>1963.300</ele>
        <time>2013-03-03T17:46:12Z</time>
        <name>WPT.209</name>
      </trkpt>
      <trkpt lat="35.271606000" lon="-106.474330000">
        <ele>1963.100</ele>
        <time>2013-03-03T17:46:15Z</time>
        <name>WPT.210</name>
      </trkpt>
      <trkpt lat="35.271576000" lon="-106.474335000">
        <ele>1964.200</ele>
        <time>2013-03-03T17:46:18Z</time>
        <name>WPT.211</name>
      </trkpt>
      <trkpt lat="35.271538000" lon="-106.474340000">
        <ele>1965.900</ele>
        <time>2013-03-03T17:46:22Z</time>
        <name>WPT.212</name>
      </trkpt>
      <trkpt lat="35.271500000" lon="-106.474360000">
        <ele>1966.300</ele>
        <time>2013-03-03T17:46:26Z</time>
        <name>WPT.213</name>
      </trkpt>
      <trkpt lat="35.271470000" lon="-106.474360000">
        <ele>1966.900</ele>
        <time>2013-03-03T17:46:30Z</time>
        <name>WPT.214</name>
      </trkpt>
      <trkpt lat="35.271446000" lon="-106.474370000">
        <ele>1967.400</ele>
        <time>2013-03-03T17:46:41Z</time>
        <name>WPT.215</name>
      </trkpt>
      <trkpt lat="35.271440000" lon="-106.474370000">
        <ele>1970.400</ele>
        <time>2013-03-03T17:47:10Z</time>
        <name>WPT.216</name>
      </trkpt>
      <trkpt lat="35.271465000" lon="-106.474360000">
        <ele>1967.400</ele>
        <time>2013-03-03T17:48:23Z</time>
        <name>WPT.217</name>
      </trkpt>
      <trkpt lat="35.271480000" lon="-106.474390000">
        <ele>1967.800</ele>
        <time>2013-03-03T17:48:28Z</time>
        <name>WPT.218</name>
      </trkpt>
      <trkpt lat="35.271458000" lon="-106.474370000">
        <ele>1967.200</ele>
        <time>2013-03-03T17:49:49Z</time>
        <name>WPT.219</name>
      </trkpt>
      <trkpt lat="35.271430000" lon="-106.474335000">
        <ele>1968.300</ele>
        <time>2013-03-03T17:50:06Z</time>
        <name>WPT.220</name>
      </trkpt>
      <trkpt lat="35.271404000" lon="-106.474304000">
        <ele>1965.400</ele>
        <time>2013-03-03T17:50:10Z</time>
        <name>WPT.221</name>
      </trkpt>
      <trkpt lat="35.271380000" lon="-106.474290000">
        <ele>1966.800</ele>
        <time>2013-03-03T17:50:13Z</time>
        <name>WPT.222</name>
      </trkpt>
      <trkpt lat="35.271305000" lon="-106.474250000">
        <ele>1970.500</ele>
        <time>2013-03-03T17:50:26Z</time>
        <name>WPT.223</name>
      </trkpt>
      <trkpt lat="35.271233000" lon="-106.474205000">
        <ele>1971.100</ele>
        <time>2013-03-03T17:50:41Z</time>
        <name>WPT.224</name>
      </trkpt>
      <trkpt lat="35.271168000" lon="-106.474130000">
        <ele>1976.000</ele>
        <time>2013-03-03T17:50:55Z</time>
        <name>WPT.225</name>
      </trkpt>
      <trkpt lat="35.271107000" lon="-106.474060000">
        <ele>1977.500</ele>
        <time>2013-03-03T17:51:06Z</time>
        <name>WPT.226</name>
      </trkpt>
      <trkpt lat="35.271088000" lon="-106.474030000">
        <ele>1982.700</ele>
        <time>2013-03-03T17:51:13Z</time>
        <name>WPT.227</name>
      </trkpt>
      <trkpt lat="35.271076000" lon="-106.473990000">
        <ele>1982.200</ele>
        <time>2013-03-03T17:51:35Z</time>
        <name>WPT.228</name>
      </trkpt>
      <trkpt lat="35.271072000" lon="-106.473960000">
        <ele>1982.700</ele>
        <time>2013-03-03T17:51:49Z</time>
        <name>WPT.229</name>
      </trkpt>
      <trkpt lat="35.271057000" lon="-106.473930000">
        <ele>1983.000</ele>
        <time>2013-03-03T17:52:02Z</time>
        <name>WPT.230</name>
      </trkpt>
      <trkpt lat="35.271046000" lon="-106.473915000">
        <ele>1986.100</ele>
        <time>2013-03-03T17:52:11Z</time>
        <name>WPT.231</name>
      </trkpt>
      <trkpt lat="35.271023000" lon="-106.473890000">
        <ele>1987.300</ele>
        <time>2013-03-03T17:52:35Z</time>
        <name>WPT.232</name>
      </trkpt>
      <trkpt lat="35.270960000" lon="-106.473816000">
        <ele>1988.900</ele>
        <time>2013-03-03T17:52:47Z</time>
        <name>WPT.233</name>
      </trkpt>
      <trkpt lat="35.270900000" lon="-106.473750000">
        <ele>1987.300</ele>
        <time>2013-03-03T17:52:57Z</time>
        <name>WPT.234</name>
      </trkpt>
      <trkpt lat="35.270866000" lon="-106.473656000">
        <ele>1987.600</ele>
        <time>2013-03-03T17:53:13Z</time>
        <name>WPT.235</name>
      </trkpt>
      <trkpt lat="35.270820000" lon="-106.473564000">
        <ele>1989.200</ele>
        <time>2013-03-03T17:53:33Z</time>
        <name>WPT.236</name>
      </trkpt>
      <trkpt lat="35.270798000" lon="-106.473470000">
        <ele>1991.700</ele>
        <time>2013-03-03T17:53:51Z</time>
        <name>WPT.237</name>
      </trkpt>
      <trkpt lat="35.270782000" lon="-106.473360000">
        <ele>1996.900</ele>
        <time>2013-03-03T17:55:41Z</time>
        <name>WPT.238</name>
      </trkpt>
      <trkpt lat="35.270798000" lon="-106.473260000">
        <ele>1995.900</ele>
        <time>2013-03-03T17:55:47Z</time>
        <name>WPT.239</name>
      </trkpt>
      <trkpt lat="35.270800000" lon="-106.473140000">
        <ele>1995.700</ele>
        <time>2013-03-03T17:55:57Z</time>
        <name>WPT.240</name>
      </trkpt>
      <trkpt lat="35.270790000" lon="-106.473010000">
        <ele>1997.200</ele>
        <time>2013-03-03T17:56:07Z</time>
        <name>WPT.241</name>
      </trkpt>
      <trkpt lat="35.270752000" lon="-106.472900000">
        <ele>1996.400</ele>
        <time>2013-03-03T17:56:16Z</time>
        <name>WPT.242</name>
      </trkpt>
      <trkpt lat="35.270733000" lon="-106.472800000">
        <ele>1996.200</ele>
        <time>2013-03-03T17:56:24Z</time>
        <name>WPT.243</name>
      </trkpt>
      <trkpt lat="35.270725000" lon="-106.472694000">
        <ele>1997.300</ele>
        <time>2013-03-03T17:56:35Z</time>
        <name>WPT.244</name>
      </trkpt>
      <trkpt lat="35.270718000" lon="-106.472570000">
        <ele>1994.400</ele>
        <time>2013-03-03T17:56:41Z</time>
        <name>WPT.245</name>
      </trkpt>
      <trkpt lat="35.270702000" lon="-106.472470000">
        <ele>1996.900</ele>
        <time>2013-03-03T17:56:47Z</time>
        <name>WPT.246</name>
      </trkpt>
      <trkpt lat="35.270706000" lon="-106.472374000">
        <ele>2001.100</ele>
        <time>2013-03-03T17:56:54Z</time>
        <name>WPT.247</name>
      </trkpt>
      <trkpt lat="35.270710000" lon="-106.472260000">
        <ele>2002.800</ele>
        <time>2013-03-03T17:57:01Z</time>
        <name>WPT.248</name>
      </trkpt>
      <trkpt lat="35.270720000" lon="-106.472150000">
        <ele>2007.800</ele>
        <time>2013-03-03T17:57:13Z</time>
        <name>WPT.249</name>
      </trkpt>
      <trkpt lat="35.270730000" lon="-106.472046000">
        <ele>2006.900</ele>
        <time>2013-03-03T17:57:26Z</time>
        <name>WPT.250</name>
      </trkpt>
      <trkpt lat="35.270710000" lon="-106.471950000">
        <ele>2009.900</ele>
        <time>2013-03-03T17:57:36Z</time>
        <name>WPT.251</name>
      </trkpt>
      <trkpt lat="35.270664000" lon="-106.471860000">
        <ele>2011.700</ele>
        <time>2013-03-03T17:57:42Z</time>
        <name>WPT.252</name>
      </trkpt>
      <trkpt lat="35.270640000" lon="-106.471810000">
        <ele>2012.600</ele>
        <time>2013-03-03T17:57:51Z</time>
        <name>WPT.253</name>
      </trkpt>
      <trkpt lat="35.270615000" lon="-106.471780000">
        <ele>2010.700</ele>
        <time>2013-03-03T17:59:11Z</time>
        <name>WPT.254</name>
      </trkpt>
      <trkpt lat="35.270590000" lon="-106.471740000">
        <ele>2013.400</ele>
        <time>2013-03-03T17:59:14Z</time>
        <name>WPT.255</name>
      </trkpt>
      <trkpt lat="35.270573000" lon="-106.471700000">
        <ele>2012.100</ele>
        <time>2013-03-03T17:59:17Z</time>
        <name>WPT.256</name>
      </trkpt>
      <trkpt lat="35.270550000" lon="-106.471670000">
        <ele>2009.400</ele>
        <time>2013-03-03T17:59:20Z</time>
        <name>WPT.257</name>
      </trkpt>
      <trkpt lat="35.270527000" lon="-106.471660000">
        <ele>2010.300</ele>
        <time>2013-03-03T17:59:23Z</time>
        <name>WPT.258</name>
      </trkpt>
      <trkpt lat="35.270496000" lon="-106.471664000">
        <ele>2011.300</ele>
        <time>2013-03-03T17:59:26Z</time>
        <name>WPT.259</name>
      </trkpt>
      <trkpt lat="35.270462000" lon="-106.471660000">
        <ele>2008.800</ele>
        <time>2013-03-03T17:59:31Z</time>
        <name>WPT.260</name>
      </trkpt>
      <trkpt lat="35.270440000" lon="-106.471634000">
        <ele>2010.100</ele>
        <time>2013-03-03T17:59:35Z</time>
        <name>WPT.261</name>
      </trkpt>
      <trkpt lat="35.270412000" lon="-106.471610000">
        <ele>2011.300</ele>
        <time>2013-03-03T17:59:39Z</time>
        <name>WPT.262</name>
      </trkpt>
      <trkpt lat="35.270386000" lon="-106.471590000">
        <ele>2011.300</ele>
        <time>2013-03-03T17:59:42Z</time>
        <name>WPT.263</name>
      </trkpt>
      <trkpt lat="35.270363000" lon="-106.471565000">
        <ele>2009.900</ele>
        <time>2013-03-03T17:59:45Z</time>
        <name>WPT.264</name>
      </trkpt>
      <trkpt lat="35.270344000" lon="-106.471540000">
        <ele>2005.800</ele>
        <time>2013-03-03T17:59:48Z</time>
        <name>WPT.265</name>
      </trkpt>
      <trkpt lat="35.270340000" lon="-106.471504000">
        <ele>2004.000</ele>
        <time>2013-03-03T17:59:51Z</time>
        <name>WPT.266</name>
      </trkpt>
      <trkpt lat="35.270317000" lon="-106.471480000">
        <ele>2003.600</ele>
        <time>2013-03-03T17:59:54Z</time>
        <name>WPT.267</name>
      </trkpt>
      <trkpt lat="35.270290000" lon="-106.471460000">
        <ele>2009.500</ele>
        <time>2013-03-03T17:59:57Z</time>
        <name>WPT.268</name>
      </trkpt>
      <trkpt lat="35.270252000" lon="-106.471450000">
        <ele>2011.100</ele>
        <time>2013-03-03T18:00:00Z</time>
        <name>WPT.269</name>
      </trkpt>
      <trkpt lat="35.270218000" lon="-106.471440000">
        <ele>2013.700</ele>
        <time>2013-03-03T18:00:04Z</time>
        <name>WPT.270</name>
      </trkpt>
      <trkpt lat="35.270195000" lon="-106.471430000">
        <ele>2016.200</ele>
        <time>2013-03-03T18:00:08Z</time>
        <name>WPT.271</name>
      </trkpt>
      <trkpt lat="35.270160000" lon="-106.471436000">
        <ele>2017.700</ele>
        <time>2013-03-03T18:00:12Z</time>
        <name>WPT.272</name>
      </trkpt>
      <trkpt lat="35.270126000" lon="-106.471440000">
        <ele>2019.200</ele>
        <time>2013-03-03T18:00:15Z</time>
        <name>WPT.273</name>
      </trkpt>
      <trkpt lat="35.270096000" lon="-106.471436000">
        <ele>2020.200</ele>
        <time>2013-03-03T18:00:18Z</time>
        <name>WPT.274</name>
      </trkpt>
      <trkpt lat="35.270065000" lon="-106.471430000">
        <ele>2020.100</ele>
        <time>2013-03-03T18:00:21Z</time>
        <name>WPT.275</name>
      </trkpt>
      <trkpt lat="35.270040000" lon="-106.471410000">
        <ele>2019.700</ele>
        <time>2013-03-03T18:00:24Z</time>
        <name>WPT.276</name>
      </trkpt>
      <trkpt lat="35.270020000" lon="-106.471380000">
        <ele>2019.600</ele>
        <time>2013-03-03T18:00:28Z</time>
        <name>WPT.277</name>
      </trkpt>
      <trkpt lat="35.269997000" lon="-106.471350000">
        <ele>2019.200</ele>
        <time>2013-03-03T18:00:32Z</time>
        <name>WPT.278</name>
      </trkpt>
      <trkpt lat="35.269993000" lon="-106.471340000">
        <ele>2015.900</ele>
        <time>2013-03-03T18:00:33Z</time>
        <name>WPT.279</name>
      </trkpt>
      <trkpt lat="35.269974000" lon="-106.471310000">
        <ele>2015.000</ele>
        <time>2013-03-03T18:00:36Z</time>
        <name>WPT.280</name>
      </trkpt>
      <trkpt lat="35.269947000" lon="-106.471280000">
        <ele>2015.700</ele>
        <time>2013-03-03T18:00:40Z</time>
        <name>WPT.281</name>
      </trkpt>
      <trkpt lat="35.269920000" lon="-106.471250000">
        <ele>2016.400</ele>
        <time>2013-03-03T18:00:44Z</time>
        <name>WPT.282</name>
      </trkpt>
      <trkpt lat="35.269900000" lon="-106.471210000">
        <ele>2016.400</ele>
        <time>2013-03-03T18:00:49Z</time>
        <name>WPT.283</name>
      </trkpt>
      <trkpt lat="35.269886000" lon="-106.471176000">
        <ele>2014.200</ele>
        <time>2013-03-03T18:00:53Z</time>
        <name>WPT.284</name>
      </trkpt>
      <trkpt lat="35.269867000" lon="-106.471140000">
        <ele>2012.900</ele>
        <time>2013-03-03T18:00:57Z</time>
        <name>WPT.285</name>
      </trkpt>
      <trkpt lat="35.269850000" lon="-106.471115000">
        <ele>2014.900</ele>
        <time>2013-03-03T18:01:01Z</time>
        <name>WPT.286</name>
      </trkpt>
      <trkpt lat="35.269825000" lon="-106.471110000">
        <ele>2018.100</ele>
        <time>2013-03-03T18:01:09Z</time>
        <name>WPT.287</name>
      </trkpt>
      <trkpt lat="35.269825000" lon="-106.471120000">
        <ele>2015.100</ele>
        <time>2013-03-03T18:01:15Z</time>
        <name>WPT.288</name>
      </trkpt>
      <trkpt lat="35.269825000" lon="-106.471160000">
        <ele>2013.300</ele>
        <time>2013-03-03T18:01:29Z</time>
        <name>WPT.289</name>
      </trkpt>
      <trkpt lat="35.269820000" lon="-106.471210000">
        <ele>2012.600</ele>
        <time>2013-03-03T18:01:32Z</time>
        <name>WPT.290</name>
      </trkpt>
      <trkpt lat="35.269802000" lon="-106.471240000">
        <ele>2011.700</ele>
        <time>2013-03-03T18:01:35Z</time>
        <name>WPT.291</name>
      </trkpt>
      <trkpt lat="35.269783000" lon="-106.471260000">
        <ele>2009.700</ele>
        <time>2013-03-03T18:01:39Z</time>
        <name>WPT.292</name>
      </trkpt>
      <trkpt lat="35.269753000" lon="-106.471275000">
        <ele>2009.500</ele>
        <time>2013-03-03T18:01:43Z</time>
        <name>WPT.293</name>
      </trkpt>
      <trkpt lat="35.269726000" lon="-106.471280000">
        <ele>2008.700</ele>
        <time>2013-03-03T18:01:46Z</time>
        <name>WPT.294</name>
      </trkpt>
      <trkpt lat="35.269690000" lon="-106.471290000">
        <ele>2007.600</ele>
        <time>2013-03-03T18:01:49Z</time>
        <name>WPT.295</name>
      </trkpt>
      <trkpt lat="35.269660000" lon="-106.471280000">
        <ele>2008.700</ele>
        <time>2013-03-03T18:01:52Z</time>
        <name>WPT.296</name>
      </trkpt>
      <trkpt lat="35.269634000" lon="-106.471290000">
        <ele>2008.900</ele>
        <time>2013-03-03T18:01:56Z</time>
        <name>WPT.297</name>
      </trkpt>
      <trkpt lat="35.269600000" lon="-106.471300000">
        <ele>2010.400</ele>
        <time>2013-03-03T18:02:01Z</time>
        <name>WPT.298</name>
      </trkpt>
      <trkpt lat="35.269573000" lon="-106.471300000">
        <ele>2012.500</ele>
        <time>2013-03-03T18:02:04Z</time>
        <name>WPT.299</name>
      </trkpt>
      <trkpt lat="35.269540000" lon="-106.471300000">
        <ele>2011.800</ele>
        <time>2013-03-03T18:02:08Z</time>
        <name>WPT.300</name>
      </trkpt>
      <trkpt lat="35.269500000" lon="-106.471290000">
        <ele>2014.900</ele>
        <time>2013-03-03T18:02:12Z</time>
        <name>WPT.301</name>
      </trkpt>
      <trkpt lat="35.269474000" lon="-106.471290000">
        <ele>2016.200</ele>
        <time>2013-03-03T18:02:15Z</time>
        <name>WPT.302</name>
      </trkpt>
      <trkpt lat="35.269444000" lon="-106.471280000">
        <ele>2016.700</ele>
        <time>2013-03-03T18:02:18Z</time>
        <name>WPT.303</name>
      </trkpt>
      <trkpt lat="35.269420000" lon="-106.471270000">
        <ele>2014.000</ele>
        <time>2013-03-03T18:02:22Z</time>
        <name>WPT.304</name>
      </trkpt>
      <trkpt lat="35.269394000" lon="-106.471250000">
        <ele>2013.400</ele>
        <time>2013-03-03T18:02:25Z</time>
        <name>WPT.305</name>
      </trkpt>
      <trkpt lat="35.269363000" lon="-106.471245000">
        <ele>2015.600</ele>
        <time>2013-03-03T18:02:28Z</time>
        <name>WPT.306</name>
      </trkpt>
      <trkpt lat="35.269337000" lon="-106.471240000">
        <ele>2016.700</ele>
        <time>2013-03-03T18:02:31Z</time>
        <name>WPT.307</name>
      </trkpt>
      <trkpt lat="35.269302000" lon="-106.471220000">
        <ele>2017.300</ele>
        <time>2013-03-03T18:02:37Z</time>
        <name>WPT.308</name>
      </trkpt>
      <trkpt lat="35.269270000" lon="-106.471200000">
        <ele>2016.500</ele>
        <time>2013-03-03T18:02:43Z</time>
        <name>WPT.309</name>
      </trkpt>
      <trkpt lat="35.269238000" lon="-106.471176000">
        <ele>2017.500</ele>
        <time>2013-03-03T18:02:47Z</time>
        <name>WPT.310</name>
      </trkpt>
      <trkpt lat="35.269203000" lon="-106.471176000">
        <ele>2019.800</ele>
        <time>2013-03-03T18:02:50Z</time>
        <name>WPT.311</name>
      </trkpt>
      <trkpt lat="35.269165000" lon="-106.471180000">
        <ele>2020.600</ele>
        <time>2013-03-03T18:02:53Z</time>
        <name>WPT.312</name>
      </trkpt>
      <trkpt lat="35.269130000" lon="-106.471180000">
        <ele>2020.100</ele>
        <time>2013-03-03T18:02:56Z</time>
        <name>WPT.313</name>
      </trkpt>
      <trkpt lat="35.269090000" lon="-106.471176000">
        <ele>2021.300</ele>
        <time>2013-03-03T18:03:01Z</time>
        <name>WPT.314</name>
      </trkpt>
      <trkpt lat="35.269054000" lon="-106.471180000">
        <ele>2022.700</ele>
        <time>2013-03-03T18:03:04Z</time>
        <name>WPT.315</name>
      </trkpt>
      <trkpt lat="35.269010000" lon="-106.471190000">
        <ele>2024.300</ele>
        <time>2013-03-03T18:03:08Z</time>
        <name>WPT.316</name>
      </trkpt>
      <trkpt lat="35.268980000" lon="-106.471180000">
        <ele>2024.200</ele>
        <time>2013-03-03T18:03:11Z</time>
        <name>WPT.317</name>
      </trkpt>
      <trkpt lat="35.268940000" lon="-106.471180000">
        <ele>2024.500</ele>
        <time>2013-03-03T18:03:22Z</time>
        <name>WPT.318</name>
      </trkpt>
      <trkpt lat="35.268910000" lon="-106.471176000">
        <ele>2024.600</ele>
        <time>2013-03-03T18:03:26Z</time>
        <name>WPT.319</name>
      </trkpt>
      <trkpt lat="35.268875000" lon="-106.471176000">
        <ele>2022.700</ele>
        <time>2013-03-03T18:03:30Z</time>
        <name>WPT.320</name>
      </trkpt>
      <trkpt lat="35.268852000" lon="-106.471160000">
        <ele>2019.600</ele>
        <time>2013-03-03T18:03:33Z</time>
        <name>WPT.321</name>
      </trkpt>
      <trkpt lat="35.268818000" lon="-106.471140000">
        <ele>2017.700</ele>
        <time>2013-03-03T18:03:38Z</time>
        <name>WPT.322</name>
      </trkpt>
      <trkpt lat="35.268787000" lon="-106.471120000">
        <ele>2020.000</ele>
        <time>2013-03-03T18:03:44Z</time>
        <name>WPT.323</name>
      </trkpt>
      <trkpt lat="35.268750000" lon="-106.471100000">
        <ele>2021.700</ele>
        <time>2013-03-03T18:03:51Z</time>
        <name>WPT.324</name>
      </trkpt>
      <trkpt lat="35.268740000" lon="-106.471090000">
        <ele>2025.000</ele>
        <time>2013-03-03T18:03:52Z</time>
        <name>WPT.325</name>
      </trkpt>
      <trkpt lat="35.268730000" lon="-106.471090000">
        <ele>2028.000</ele>
        <time>2013-03-03T18:03:54Z</time>
        <name>WPT.326</name>
      </trkpt>
      <trkpt lat="35.268700000" lon="-106.471085000">
        <ele>2028.500</ele>
        <time>2013-03-03T18:04:00Z</time>
        <name>WPT.327</name>
      </trkpt>
      <trkpt lat="35.268677000" lon="-106.471060000">
        <ele>2028.100</ele>
        <time>2013-03-03T18:04:12Z</time>
        <name>WPT.328</name>
      </trkpt>
      <trkpt lat="35.268612000" lon="-106.470985000">
        <ele>2033.500</ele>
        <time>2013-03-03T18:04:24Z</time>
        <name>WPT.329</name>
      </trkpt>
      <trkpt lat="35.268555000" lon="-106.470920000">
        <ele>2033.500</ele>
        <time>2013-03-03T18:04:34Z</time>
        <name>WPT.330</name>
      </trkpt>
      <trkpt lat="35.268528000" lon="-106.470900000">
        <ele>2034.800</ele>
        <time>2013-03-03T18:04:55Z</time>
        <name>WPT.331</name>
      </trkpt>
      <trkpt lat="35.268510000" lon="-106.470894000">
        <ele>2037.900</ele>
        <time>2013-03-03T18:05:09Z</time>
        <name>WPT.332</name>
      </trkpt>
      <trkpt lat="35.268490000" lon="-106.470856000">
        <ele>2037.300</ele>
        <time>2013-03-03T18:05:12Z</time>
        <name>WPT.333</name>
      </trkpt>
      <trkpt lat="35.268475000" lon="-106.470820000">
        <ele>2038.400</ele>
        <time>2013-03-03T18:05:22Z</time>
        <name>WPT.334</name>
      </trkpt>
      <trkpt lat="35.268450000" lon="-106.470800000">
        <ele>2040.700</ele>
        <time>2013-03-03T18:05:25Z</time>
        <name>WPT.335</name>
      </trkpt>
      <trkpt lat="35.268433000" lon="-106.470780000">
        <ele>2042.400</ele>
        <time>2013-03-03T18:05:30Z</time>
        <name>WPT.336</name>
      </trkpt>
      <trkpt lat="35.268406000" lon="-106.470764000">
        <ele>2042.400</ele>
        <time>2013-03-03T18:05:35Z</time>
        <name>WPT.337</name>
      </trkpt>
      <trkpt lat="35.268387000" lon="-106.470730000">
        <ele>2042.500</ele>
        <time>2013-03-03T18:05:56Z</time>
        <name>WPT.338</name>
      </trkpt>
      <trkpt lat="35.268345000" lon="-106.470710000">
        <ele>2041.200</ele>
        <time>2013-03-03T18:06:35Z</time>
        <name>WPT.339</name>
      </trkpt>
      <trkpt lat="35.268314000" lon="-106.470670000">
        <ele>2039.400</ele>
        <time>2013-03-03T18:06:41Z</time>
        <name>WPT.340</name>
      </trkpt>
      <trkpt lat="35.268303000" lon="-106.470620000">
        <ele>2039.600</ele>
        <time>2013-03-03T18:06:46Z</time>
        <name>WPT.341</name>
      </trkpt>
      <trkpt lat="35.268240000" lon="-106.470560000">
        <ele>2038.100</ele>
        <time>2013-03-03T18:07:17Z</time>
        <name>WPT.342</name>
      </trkpt>
      <trkpt lat="35.268180000" lon="-106.470470000">
        <ele>2033.900</ele>
        <time>2013-03-03T18:07:30Z</time>
        <name>WPT.343</name>
      </trkpt>
      <trkpt lat="35.268130000" lon="-106.470380000">
        <ele>2035.600</ele>
        <time>2013-03-03T18:07:48Z</time>
        <name>WPT.344</name>
      </trkpt>
      <trkpt lat="35.268112000" lon="-106.470280000">
        <ele>2036.300</ele>
        <time>2013-03-03T18:07:59Z</time>
        <name>WPT.345</name>
      </trkpt>
      <trkpt lat="35.268124000" lon="-106.470170000">
        <ele>2029.800</ele>
        <time>2013-03-03T18:08:07Z</time>
        <name>WPT.346</name>
      </trkpt>
      <trkpt lat="35.268116000" lon="-106.470055000">
        <ele>2028.000</ele>
        <time>2013-03-03T18:08:21Z</time>
        <name>WPT.347</name>
      </trkpt>
      <trkpt lat="35.268074000" lon="-106.469955000">
        <ele>2031.700</ele>
        <time>2013-03-03T18:08:27Z</time>
        <name>WPT.348</name>
      </trkpt>
      <trkpt lat="35.268030000" lon="-106.469840000">
        <ele>2038.500</ele>
        <time>2013-03-03T18:08:33Z</time>
        <name>WPT.349</name>
      </trkpt>
      <trkpt lat="35.267975000" lon="-106.469740000">
        <ele>2048.300</ele>
        <time>2013-03-03T18:08:48Z</time>
        <name>WPT.350</name>
      </trkpt>
      <trkpt lat="35.267910000" lon="-106.469666000">
        <ele>2051.400</ele>
        <time>2013-03-03T18:08:53Z</time>
        <name>WPT.351</name>
      </trkpt>
      <trkpt lat="35.267883000" lon="-106.469560000">
        <ele>2051.700</ele>
        <time>2013-03-03T18:08:58Z</time>
        <name>WPT.352</name>
      </trkpt>
      <trkpt lat="35.267853000" lon="-106.469470000">
        <ele>2056.100</ele>
        <time>2013-03-03T18:09:05Z</time>
        <name>WPT.353</name>
      </trkpt>
      <trkpt lat="35.267807000" lon="-106.469380000">
        <ele>2055.500</ele>
        <time>2013-03-03T18:09:12Z</time>
        <name>WPT.354</name>
      </trkpt>
      <trkpt lat="35.267796000" lon="-106.469350000">
        <ele>2055.500</ele>
        <time>2013-03-03T18:09:17Z</time>
        <name>WPT.355</name>
      </trkpt>
      <trkpt lat="35.267770000" lon="-106.469330000">
        <ele>2055.100</ele>
        <time>2013-03-03T18:09:22Z</time>
        <name>WPT.356</name>
      </trkpt>
      <trkpt lat="35.267730000" lon="-106.469315000">
        <ele>2056.200</ele>
        <time>2013-03-03T18:09:26Z</time>
        <name>WPT.357</name>
      </trkpt>
      <trkpt lat="35.267700000" lon="-106.469290000">
        <ele>2056.300</ele>
        <time>2013-03-03T18:09:30Z</time>
        <name>WPT.358</name>
      </trkpt>
      <trkpt lat="35.267662000" lon="-106.469270000">
        <ele>2055.100</ele>
        <time>2013-03-03T18:09:34Z</time>
        <name>WPT.359</name>
      </trkpt>
      <trkpt lat="35.267624000" lon="-106.469280000">
        <ele>2054.500</ele>
        <time>2013-03-03T18:09:38Z</time>
        <name>WPT.360</name>
      </trkpt>
      <trkpt lat="35.267597000" lon="-106.469280000">
        <ele>2055.600</ele>
        <time>2013-03-03T18:09:41Z</time>
        <name>WPT.361</name>
      </trkpt>
      <trkpt lat="35.267560000" lon="-106.469280000">
        <ele>2058.100</ele>
        <time>2013-03-03T18:09:45Z</time>
        <name>WPT.362</name>
      </trkpt>
      <trkpt lat="35.267513000" lon="-106.469270000">
        <ele>2058.700</ele>
        <time>2013-03-03T18:09:49Z</time>
        <name>WPT.363</name>
      </trkpt>
      <trkpt lat="35.267475000" lon="-106.469270000">
        <ele>2058.000</ele>
        <time>2013-03-03T18:09:53Z</time>
        <name>WPT.364</name>
      </trkpt>
      <trkpt lat="35.267464000" lon="-106.469230000">
        <ele>2058.500</ele>
        <time>2013-03-03T18:09:58Z</time>
        <name>WPT.365</name>
      </trkpt>
      <trkpt lat="35.267433000" lon="-106.469210000">
        <ele>2058.000</ele>
        <time>2013-03-03T18:10:02Z</time>
        <name>WPT.366</name>
      </trkpt>
      <trkpt lat="35.267403000" lon="-106.469185000">
        <ele>2057.900</ele>
        <time>2013-03-03T18:10:06Z</time>
        <name>WPT.367</name>
      </trkpt>
      <trkpt lat="35.267376000" lon="-106.469154000">
        <ele>2057.900</ele>
        <time>2013-03-03T18:10:11Z</time>
        <name>WPT.368</name>
      </trkpt>
      <trkpt lat="35.267292000" lon="-106.469120000">
        <ele>2066.100</ele>
        <time>2013-03-03T18:10:23Z</time>
        <name>WPT.369</name>
      </trkpt>
      <trkpt lat="35.267210000" lon="-106.469124000">
        <ele>2066.900</ele>
        <time>2013-03-03T18:10:29Z</time>
        <name>WPT.370</name>
      </trkpt>
      <trkpt lat="35.267130000" lon="-106.469086000">
        <ele>2068.900</ele>
        <time>2013-03-03T18:10:42Z</time>
        <name>WPT.371</name>
      </trkpt>
      <trkpt lat="35.267044000" lon="-106.469070000">
        <ele>2069.200</ele>
        <time>2013-03-03T18:10:53Z</time>
        <name>WPT.372</name>
      </trkpt>
      <trkpt lat="35.266960000" lon="-106.469040000">
        <ele>2068.100</ele>
        <time>2013-03-03T18:11:05Z</time>
        <name>WPT.373</name>
      </trkpt>
      <trkpt lat="35.266870000" lon="-106.469010000">
        <ele>2069.400</ele>
        <time>2013-03-03T18:11:13Z</time>
        <name>WPT.374</name>
      </trkpt>
      <trkpt lat="35.266785000" lon="-106.468970000">
        <ele>2072.800</ele>
        <time>2013-03-03T18:11:23Z</time>
        <name>WPT.375</name>
      </trkpt>
      <trkpt lat="35.266700000" lon="-106.468990000">
        <ele>2073.100</ele>
        <time>2013-03-03T18:12:05Z</time>
        <name>WPT.376</name>
      </trkpt>
      <trkpt lat="35.266613000" lon="-106.469000000">
        <ele>2075.300</ele>
        <time>2013-03-03T18:12:15Z</time>
        <name>WPT.377</name>
      </trkpt>
      <trkpt lat="35.266520000" lon="-106.469040000">
        <ele>2077.900</ele>
        <time>2013-03-03T18:12:24Z</time>
        <name>WPT.378</name>
      </trkpt>
      <trkpt lat="35.266464000" lon="-106.469110000">
        <ele>2076.100</ele>
        <time>2013-03-03T18:12:32Z</time>
        <name>WPT.379</name>
      </trkpt>
      <trkpt lat="35.266426000" lon="-106.469190000">
        <ele>2077.700</ele>
        <time>2013-03-03T18:12:48Z</time>
        <name>WPT.380</name>
      </trkpt>
      <trkpt lat="35.266354000" lon="-106.469240000">
        <ele>2078.900</ele>
        <time>2013-03-03T18:13:09Z</time>
        <name>WPT.381</name>
      </trkpt>
      <trkpt lat="35.266262000" lon="-106.469220000">
        <ele>2072.700</ele>
        <time>2013-03-03T18:13:18Z</time>
        <name>WPT.382</name>
      </trkpt>
      <trkpt lat="35.266224000" lon="-106.469124000">
        <ele>2078.100</ele>
        <time>2013-03-03T18:13:38Z</time>
        <name>WPT.383</name>
      </trkpt>
      <trkpt lat="35.266200000" lon="-106.469025000">
        <ele>2085.000</ele>
        <time>2013-03-03T18:13:57Z</time>
        <name>WPT.384</name>
      </trkpt>
      <trkpt lat="35.266117000" lon="-106.469030000">
        <ele>2087.700</ele>
        <time>2013-03-03T18:15:12Z</time>
        <name>WPT.385</name>
      </trkpt>
      <trkpt lat="35.266026000" lon="-106.469040000">
        <ele>2086.500</ele>
        <time>2013-03-03T18:15:20Z</time>
        <name>WPT.386</name>
      </trkpt>
      <trkpt lat="35.265953000" lon="-106.469100000">
        <ele>2088.700</ele>
        <time>2013-03-03T18:15:27Z</time>
        <name>WPT.387</name>
      </trkpt>
      <trkpt lat="35.265892000" lon="-106.469185000">
        <ele>2092.200</ele>
        <time>2013-03-03T18:15:35Z</time>
        <name>WPT.388</name>
      </trkpt>
      <trkpt lat="35.265873000" lon="-106.469220000">
        <ele>2093.100</ele>
        <time>2013-03-03T18:15:38Z</time>
        <name>WPT.389</name>
      </trkpt>
      <trkpt lat="35.265840000" lon="-106.469260000">
        <ele>2094.300</ele>
        <time>2013-03-03T18:15:42Z</time>
        <name>WPT.390</name>
      </trkpt>
      <trkpt lat="35.265816000" lon="-106.469290000">
        <ele>2095.000</ele>
        <time>2013-03-03T18:15:45Z</time>
        <name>WPT.391</name>
      </trkpt>
      <trkpt lat="35.265790000" lon="-106.469320000">
        <ele>2094.700</ele>
        <time>2013-03-03T18:15:49Z</time>
        <name>WPT.392</name>
      </trkpt>
      <trkpt lat="35.265780000" lon="-106.469360000">
        <ele>2096.500</ele>
        <time>2013-03-03T18:15:53Z</time>
        <name>WPT.393</name>
      </trkpt>
      <trkpt lat="35.265774000" lon="-106.469400000">
        <ele>2100.100</ele>
        <time>2013-03-03T18:15:57Z</time>
        <name>WPT.394</name>
      </trkpt>
      <trkpt lat="35.265750000" lon="-106.469440000">
        <ele>2101.500</ele>
        <time>2013-03-03T18:16:02Z</time>
        <name>WPT.395</name>
      </trkpt>
      <trkpt lat="35.265724000" lon="-106.469440000">
        <ele>2102.300</ele>
        <time>2013-03-03T18:16:05Z</time>
        <name>WPT.396</name>
      </trkpt>
      <trkpt lat="35.265690000" lon="-106.469440000">
        <ele>2103.200</ele>
        <time>2013-03-03T18:16:08Z</time>
        <name>WPT.397</name>
      </trkpt>
      <trkpt lat="35.265656000" lon="-106.469440000">
        <ele>2102.200</ele>
        <time>2013-03-03T18:16:11Z</time>
        <name>WPT.398</name>
      </trkpt>
      <trkpt lat="35.265625000" lon="-106.469420000">
        <ele>2103.000</ele>
        <time>2013-03-03T18:16:14Z</time>
        <name>WPT.399</name>
      </trkpt>
      <trkpt lat="35.265602000" lon="-106.469390000">
        <ele>2103.100</ele>
        <time>2013-03-03T18:16:17Z</time>
        <name>WPT.400</name>
      </trkpt>
      <trkpt lat="35.265560000" lon="-106.469380000">
        <ele>2104.200</ele>
        <time>2013-03-03T18:16:21Z</time>
        <name>WPT.401</name>
      </trkpt>
      <trkpt lat="35.265530000" lon="-106.469350000">
        <ele>2100.700</ele>
        <time>2013-03-03T18:16:26Z</time>
        <name>WPT.402</name>
      </trkpt>
      <trkpt lat="35.265510000" lon="-106.469330000">
        <ele>2102.500</ele>
        <time>2013-03-03T18:16:29Z</time>
        <name>WPT.403</name>
      </trkpt>
      <trkpt lat="35.265484000" lon="-106.469310000">
        <ele>2102.300</ele>
        <time>2013-03-03T18:16:32Z</time>
        <name>WPT.404</name>
      </trkpt>
      <trkpt lat="35.265453000" lon="-106.469284000">
        <ele>2102.600</ele>
        <time>2013-03-03T18:16:35Z</time>
        <name>WPT.405</name>
      </trkpt>
      <trkpt lat="35.265420000" lon="-106.469270000">
        <ele>2104.900</ele>
        <time>2013-03-03T18:16:38Z</time>
        <name>WPT.406</name>
      </trkpt>
      <trkpt lat="35.265385000" lon="-106.469260000">
        <ele>2104.800</ele>
        <time>2013-03-03T18:16:41Z</time>
        <name>WPT.407</name>
      </trkpt>
      <trkpt lat="35.265360000" lon="-106.469270000">
        <ele>2109.100</ele>
        <time>2013-03-03T18:20:44Z</time>
        <name>WPT.408</name>
      </trkpt>
      <trkpt lat="35.265335000" lon="-106.469260000">
        <ele>2112.200</ele>
        <time>2013-03-03T18:21:36Z</time>
        <name>WPT.409</name>
      </trkpt>
      <trkpt lat="35.265305000" lon="-106.469260000">
        <ele>2113.300</ele>
        <time>2013-03-03T18:22:44Z</time>
        <name>WPT.410</name>
      </trkpt>
      <trkpt lat="35.265347000" lon="-106.469260000">
        <ele>2113.300</ele>
        <time>2013-03-03T18:24:03Z</time>
        <name>WPT.411</name>
      </trkpt>
      <trkpt lat="35.265370000" lon="-106.469284000">
        <ele>2112.400</ele>
        <time>2013-03-03T18:24:06Z</time>
        <name>WPT.412</name>
      </trkpt>
      <trkpt lat="35.265396000" lon="-106.469320000">
        <ele>2111.800</ele>
        <time>2013-03-03T18:24:10Z</time>
        <name>WPT.413</name>
      </trkpt>
      <trkpt lat="35.265427000" lon="-106.469360000">
        <ele>2106.000</ele>
        <time>2013-03-03T18:24:15Z</time>
        <name>WPT.414</name>
      </trkpt>
      <trkpt lat="35.265460000" lon="-106.469350000">
        <ele>2104.300</ele>
        <time>2013-03-03T18:24:19Z</time>
        <name>WPT.415</name>
      </trkpt>
      <trkpt lat="35.265490000" lon="-106.469376000">
        <ele>2105.600</ele>
        <time>2013-03-03T18:24:22Z</time>
        <name>WPT.416</name>
      </trkpt>
      <trkpt lat="35.265522000" lon="-106.469400000">
        <ele>2105.700</ele>
        <time>2013-03-03T18:24:25Z</time>
        <name>WPT.417</name>
      </trkpt>
      <trkpt lat="35.265550000" lon="-106.469420000">
        <ele>2105.600</ele>
        <time>2013-03-03T18:24:30Z</time>
        <name>WPT.418</name>
      </trkpt>
      <trkpt lat="35.265583000" lon="-106.469430000">
        <ele>2105.100</ele>
        <time>2013-03-03T18:24:35Z</time>
        <name>WPT.419</name>
      </trkpt>
      <trkpt lat="35.265606000" lon="-106.469406000">
        <ele>2107.400</ele>
        <time>2013-03-03T18:24:45Z</time>
        <name>WPT.420</name>
      </trkpt>
      <trkpt lat="35.265630000" lon="-106.469380000">
        <ele>2106.700</ele>
        <time>2013-03-03T18:24:52Z</time>
        <name>WPT.421</name>
      </trkpt>
      <trkpt lat="35.265650000" lon="-106.469350000">
        <ele>2106.600</ele>
        <time>2013-03-03T18:24:57Z</time>
        <name>WPT.422</name>
      </trkpt>
      <trkpt lat="35.265680000" lon="-106.469320000">
        <ele>2109.700</ele>
        <time>2013-03-03T18:25:00Z</time>
        <name>WPT.423</name>
      </trkpt>
      <trkpt lat="35.265713000" lon="-106.469310000">
        <ele>2110.200</ele>
        <time>2013-03-03T18:25:02Z</time>
        <name>WPT.424</name>
      </trkpt>
      <trkpt lat="35.265740000" lon="-106.469280000">
        <ele>2109.100</ele>
        <time>2013-03-03T18:25:05Z</time>
        <name>WPT.425</name>
      </trkpt>
      <trkpt lat="35.265760000" lon="-106.469240000">
        <ele>2109.500</ele>
        <time>2013-03-03T18:25:09Z</time>
        <name>WPT.426</name>
      </trkpt>
      <trkpt lat="35.265770000" lon="-106.469210000">
        <ele>2108.600</ele>
        <time>2013-03-03T18:25:14Z</time>
        <name>WPT.427</name>
      </trkpt>
      <trkpt lat="35.265800000" lon="-106.469185000">
        <ele>2109.700</ele>
        <time>2013-03-03T18:25:19Z</time>
        <name>WPT.428</name>
      </trkpt>
      <trkpt lat="35.265823000" lon="-106.469154000">
        <ele>2108.500</ele>
        <time>2013-03-03T18:25:23Z</time>
        <name>WPT.429</name>
      </trkpt>
      <trkpt lat="35.265858000" lon="-106.469130000">
        <ele>2108.500</ele>
        <time>2013-03-03T18:25:28Z</time>
        <name>WPT.430</name>
      </trkpt>
      <trkpt lat="35.265890000" lon="-106.469124000">
        <ele>2108.700</ele>
        <time>2013-03-03T18:25:32Z</time>
        <name>WPT.431</name>
      </trkpt>
      <trkpt lat="35.265920000" lon="-106.469100000">
        <ele>2106.900</ele>
        <time>2013-03-03T18:25:37Z</time>
        <name>WPT.432</name>
      </trkpt>
      <trkpt lat="35.265984000" lon="-106.469030000">
        <ele>2106.900</ele>
        <time>2013-03-03T18:25:47Z</time>
        <name>WPT.433</name>
      </trkpt>
      <trkpt lat="35.266064000" lon="-106.469010000">
        <ele>2102.800</ele>
        <time>2013-03-03T18:26:07Z</time>
        <name>WPT.434</name>
      </trkpt>
      <trkpt lat="35.266080000" lon="-106.469070000">
        <ele>2093.400</ele>
        <time>2013-03-03T18:26:17Z</time>
        <name>WPT.435</name>
      </trkpt>
      <trkpt lat="35.266083000" lon="-106.469180000">
        <ele>2091.600</ele>
        <time>2013-03-03T18:26:28Z</time>
        <name>WPT.436</name>
      </trkpt>
      <trkpt lat="35.266167000" lon="-106.469215000">
        <ele>2088.100</ele>
        <time>2013-03-03T18:26:40Z</time>
        <name>WPT.437</name>
      </trkpt>
      <trkpt lat="35.266247000" lon="-106.469240000">
        <ele>2084.900</ele>
        <time>2013-03-03T18:26:56Z</time>
        <name>WPT.438</name>
      </trkpt>
      <trkpt lat="35.266330000" lon="-106.469180000">
        <ele>2082.100</ele>
        <time>2013-03-03T18:27:22Z</time>
        <name>WPT.439</name>
      </trkpt>
      <trkpt lat="35.266396000" lon="-106.469110000">
        <ele>2083.400</ele>
        <time>2013-03-03T18:27:29Z</time>
        <name>WPT.440</name>
      </trkpt>
      <trkpt lat="35.266460000" lon="-106.469040000">
        <ele>2078.700</ele>
        <time>2013-03-03T18:27:40Z</time>
        <name>WPT.441</name>
      </trkpt>
      <trkpt lat="35.266530000" lon="-106.468990000">
        <ele>2078.800</ele>
        <time>2013-03-03T18:27:55Z</time>
        <name>WPT.442</name>
      </trkpt>
      <trkpt lat="35.266613000" lon="-106.468990000">
        <ele>2078.800</ele>
        <time>2013-03-03T18:28:07Z</time>
        <name>WPT.443</name>
      </trkpt>
      <trkpt lat="35.266697000" lon="-106.469020000">
        <ele>2075.200</ele>
        <time>2013-03-03T18:28:15Z</time>
        <name>WPT.444</name>
      </trkpt>
      <trkpt lat="35.266780000" lon="-106.469030000">
        <ele>2073.600</ele>
        <time>2013-03-03T18:28:23Z</time>
        <name>WPT.445</name>
      </trkpt>
      <trkpt lat="35.266872000" lon="-106.469010000">
        <ele>2072.000</ele>
        <time>2013-03-03T18:28:36Z</time>
        <name>WPT.446</name>
      </trkpt>
      <trkpt lat="35.266960000" lon="-106.469025000">
        <ele>2071.000</ele>
        <time>2013-03-03T18:28:44Z</time>
        <name>WPT.447</name>
      </trkpt>
      <trkpt lat="35.267044000" lon="-106.469055000">
        <ele>2072.700</ele>
        <time>2013-03-03T18:29:08Z</time>
        <name>WPT.448</name>
      </trkpt>
      <trkpt lat="35.267130000" lon="-106.469080000">
        <ele>2073.400</ele>
        <time>2013-03-03T18:29:17Z</time>
        <name>WPT.449</name>
      </trkpt>
      <trkpt lat="35.267220000" lon="-106.469110000">
        <ele>2074.500</ele>
        <time>2013-03-03T18:29:24Z</time>
        <name>WPT.450</name>
      </trkpt>
      <trkpt lat="35.267292000" lon="-106.469154000">
        <ele>2072.500</ele>
        <time>2013-03-03T18:29:31Z</time>
        <name>WPT.451</name>
      </trkpt>
      <trkpt lat="35.267370000" lon="-106.469210000">
        <ele>2069.600</ele>
        <time>2013-03-03T18:29:40Z</time>
        <name>WPT.452</name>
      </trkpt>
      <trkpt lat="35.267456000" lon="-106.469230000">
        <ele>2070.700</ele>
        <time>2013-03-03T18:29:55Z</time>
        <name>WPT.453</name>
      </trkpt>
      <trkpt lat="35.267536000" lon="-106.469280000">
        <ele>2066.600</ele>
        <time>2013-03-03T18:30:01Z</time>
        <name>WPT.454</name>
      </trkpt>
      <trkpt lat="35.267620000" lon="-106.469320000">
        <ele>2065.700</ele>
        <time>2013-03-03T18:30:09Z</time>
        <name>WPT.455</name>
      </trkpt>
      <trkpt lat="35.267673000" lon="-106.469406000">
        <ele>2062.700</ele>
        <time>2013-03-03T18:30:17Z</time>
        <name>WPT.456</name>
      </trkpt>
      <trkpt lat="35.267723000" lon="-106.469490000">
        <ele>2065.500</ele>
        <time>2013-03-03T18:30:25Z</time>
        <name>WPT.457</name>
      </trkpt>
      <trkpt lat="35.267807000" lon="-106.469530000">
        <ele>2063.200</ele>
        <time>2013-03-03T18:30:35Z</time>
        <name>WPT.458</name>
      </trkpt>
      <trkpt lat="35.267880000" lon="-106.469590000">
        <ele>2060.800</ele>
        <time>2013-03-03T18:30:44Z</time>
        <name>WPT.459</name>
      </trkpt>
      <trkpt lat="35.267930000" lon="-106.469670000">
        <ele>2061.100</ele>
        <time>2013-03-03T18:30:58Z</time>
        <name>WPT.460</name>
      </trkpt>
      <trkpt lat="35.267937000" lon="-106.469770000">
        <ele>2063.100</ele>
        <time>2013-03-03T18:31:05Z</time>
        <name>WPT.461</name>
      </trkpt>
      <trkpt lat="35.267960000" lon="-106.469900000">
        <ele>2055.300</ele>
        <time>2013-03-03T18:31:14Z</time>
        <name>WPT.462</name>
      </trkpt>
      <trkpt lat="35.267986000" lon="-106.469990000">
        <ele>2054.100</ele>
        <time>2013-03-03T18:31:26Z</time>
        <name>WPT.463</name>
      </trkpt>
      <trkpt lat="35.268000000" lon="-106.470100000">
        <ele>2052.100</ele>
        <time>2013-03-03T18:31:35Z</time>
        <name>WPT.464</name>
      </trkpt>
      <trkpt lat="35.268066000" lon="-106.470170000">
        <ele>2049.000</ele>
        <time>2013-03-03T18:31:43Z</time>
        <name>WPT.465</name>
      </trkpt>
      <trkpt lat="35.268093000" lon="-106.470270000">
        <ele>2044.300</ele>
        <time>2013-03-03T18:31:59Z</time>
        <name>WPT.466</name>
      </trkpt>
      <trkpt lat="35.268130000" lon="-106.470360000">
        <ele>2042.200</ele>
        <time>2013-03-03T18:32:08Z</time>
        <name>WPT.467</name>
      </trkpt>
      <trkpt lat="35.268173000" lon="-106.470450000">
        <ele>2038.300</ele>
        <time>2013-03-03T18:32:15Z</time>
        <name>WPT.468</name>
      </trkpt>
      <trkpt lat="35.268230000" lon="-106.470560000">
        <ele>2036.500</ele>
        <time>2013-03-03T18:32:26Z</time>
        <name>WPT.469</name>
      </trkpt>
      <trkpt lat="35.268314000" lon="-106.470604000">
        <ele>2039.800</ele>
        <time>2013-03-03T18:32:35Z</time>
        <name>WPT.470</name>
      </trkpt>
      <trkpt lat="35.268380000" lon="-106.470665000">
        <ele>2040.200</ele>
        <time>2013-03-03T18:32:52Z</time>
        <name>WPT.471</name>
      </trkpt>
      <trkpt lat="35.268433000" lon="-106.470750000">
        <ele>2034.200</ele>
        <time>2013-03-03T18:33:11Z</time>
        <name>WPT.472</name>
      </trkpt>
      <trkpt lat="35.268497000" lon="-106.470820000">
        <ele>2034.000</ele>
        <time>2013-03-03T18:33:20Z</time>
        <name>WPT.473</name>
      </trkpt>
      <trkpt lat="35.268560000" lon="-106.470894000">
        <ele>2035.800</ele>
        <time>2013-03-03T18:33:38Z</time>
        <name>WPT.474</name>
      </trkpt>
      <trkpt lat="35.268616000" lon="-106.470970000">
        <ele>2031.900</ele>
        <time>2013-03-03T18:33:56Z</time>
        <name>WPT.475</name>
      </trkpt>
      <trkpt lat="35.268692000" lon="-106.471040000">
        <ele>2032.500</ele>
        <time>2013-03-03T18:34:05Z</time>
        <name>WPT.476</name>
      </trkpt>
      <trkpt lat="35.268770000" lon="-106.471090000">
        <ele>2030.700</ele>
        <time>2013-03-03T18:34:14Z</time>
        <name>WPT.477</name>
      </trkpt>
      <trkpt lat="35.268852000" lon="-106.471130000">
        <ele>2029.600</ele>
        <time>2013-03-03T18:34:22Z</time>
        <name>WPT.478</name>
      </trkpt>
      <trkpt lat="35.268940000" lon="-106.471160000">
        <ele>2030.400</ele>
        <time>2013-03-03T18:34:30Z</time>
        <name>WPT.479</name>
      </trkpt>
      <trkpt lat="35.269020000" lon="-106.471210000">
        <ele>2034.700</ele>
        <time>2013-03-03T18:34:45Z</time>
        <name>WPT.480</name>
      </trkpt>
      <trkpt lat="35.269070000" lon="-106.471210000">
        <ele>2032.700</ele>
        <time>2013-03-03T18:34:49Z</time>
        <name>WPT.481</name>
      </trkpt>
      <trkpt lat="35.269100000" lon="-106.471200000">
        <ele>2032.700</ele>
        <time>2013-03-03T18:34:51Z</time>
        <name>WPT.482</name>
      </trkpt>
      <trkpt lat="35.269130000" lon="-106.471210000">
        <ele>2033.200</ele>
        <time>2013-03-03T18:34:53Z</time>
        <name>WPT.483</name>
      </trkpt>
      <trkpt lat="35.269170000" lon="-106.471214000">
        <ele>2033.200</ele>
        <time>2013-03-03T18:34:56Z</time>
        <name>WPT.484</name>
      </trkpt>
      <trkpt lat="35.269203000" lon="-106.471220000">
        <ele>2032.500</ele>
        <time>2013-03-03T18:34:59Z</time>
        <name>WPT.485</name>
      </trkpt>
      <trkpt lat="35.269222000" lon="-106.471245000">
        <ele>2032.500</ele>
        <time>2013-03-03T18:35:03Z</time>
        <name>WPT.486</name>
      </trkpt>
      <trkpt lat="35.269257000" lon="-106.471270000">
        <ele>2030.200</ele>
        <time>2013-03-03T18:35:19Z</time>
        <name>WPT.487</name>
      </trkpt>
      <trkpt lat="35.269283000" lon="-106.471280000">
        <ele>2030.300</ele>
        <time>2013-03-03T18:35:22Z</time>
        <name>WPT.488</name>
      </trkpt>
      <trkpt lat="35.269318000" lon="-106.471290000">
        <ele>2028.300</ele>
        <time>2013-03-03T18:35:25Z</time>
        <name>WPT.489</name>
      </trkpt>
      <trkpt lat="35.269352000" lon="-106.471300000">
        <ele>2027.600</ele>
        <time>2013-03-03T18:35:28Z</time>
        <name>WPT.490</name>
      </trkpt>
      <trkpt lat="35.269390000" lon="-106.471306000">
        <ele>2026.700</ele>
        <time>2013-03-03T18:35:31Z</time>
        <name>WPT.491</name>
      </trkpt>
      <trkpt lat="35.269440000" lon="-106.471320000">
        <ele>2025.800</ele>
        <time>2013-03-03T18:35:35Z</time>
        <name>WPT.492</name>
      </trkpt>
      <trkpt lat="35.269485000" lon="-106.471320000">
        <ele>2025.700</ele>
        <time>2013-03-03T18:35:38Z</time>
        <name>WPT.493</name>
      </trkpt>
      <trkpt lat="35.269540000" lon="-106.471310000">
        <ele>2025.800</ele>
        <time>2013-03-03T18:35:42Z</time>
        <name>WPT.494</name>
      </trkpt>
      <trkpt lat="35.269570000" lon="-106.471310000">
        <ele>2025.800</ele>
        <time>2013-03-03T18:35:45Z</time>
        <name>WPT.495</name>
      </trkpt>
      <trkpt lat="35.269604000" lon="-106.471310000">
        <ele>2027.100</ele>
        <time>2013-03-03T18:35:48Z</time>
        <name>WPT.496</name>
      </trkpt>
      <trkpt lat="35.269640000" lon="-106.471300000">
        <ele>2026.700</ele>
        <time>2013-03-03T18:35:51Z</time>
        <name>WPT.497</name>
      </trkpt>
      <trkpt lat="35.269680000" lon="-106.471214000">
        <ele>2026.300</ele>
        <time>2013-03-03T18:36:06Z</time>
        <name>WPT.498</name>
      </trkpt>
      <trkpt lat="35.269745000" lon="-106.471170000">
        <ele>2025.500</ele>
        <time>2013-03-03T18:36:28Z</time>
        <name>WPT.499</name>
      </trkpt>
      <trkpt lat="35.269775000" lon="-106.471176000">
        <ele>2023.000</ele>
        <time>2013-03-03T18:36:34Z</time>
        <name>WPT.500</name>
      </trkpt>
      <trkpt lat="35.269810000" lon="-106.471200000">
        <ele>2022.000</ele>
        <time>2013-03-03T18:36:45Z</time>
        <name>WPT.501</name>
      </trkpt>
      <trkpt lat="35.269860000" lon="-106.471230000">
        <ele>2020.800</ele>
        <time>2013-03-03T18:36:50Z</time>
        <name>WPT.502</name>
      </trkpt>
      <trkpt lat="35.269894000" lon="-106.471270000">
        <ele>2020.000</ele>
        <time>2013-03-03T18:36:52Z</time>
        <name>WPT.503</name>
      </trkpt>
      <trkpt lat="35.269928000" lon="-106.471306000">
        <ele>2020.500</ele>
        <time>2013-03-03T18:36:54Z</time>
        <name>WPT.504</name>
      </trkpt>
      <trkpt lat="35.269966000" lon="-106.471344000">
        <ele>2020.200</ele>
        <time>2013-03-03T18:36:56Z</time>
        <name>WPT.505</name>
      </trkpt>
      <trkpt lat="35.270000000" lon="-106.471375000">
        <ele>2020.300</ele>
        <time>2013-03-03T18:36:58Z</time>
        <name>WPT.506</name>
      </trkpt>
      <trkpt lat="35.270027000" lon="-106.471390000">
        <ele>2020.300</ele>
        <time>2013-03-03T18:37:00Z</time>
        <name>WPT.507</name>
      </trkpt>
      <trkpt lat="35.270058000" lon="-106.471420000">
        <ele>2021.000</ele>
        <time>2013-03-03T18:37:03Z</time>
        <name>WPT.508</name>
      </trkpt>
      <trkpt lat="35.270084000" lon="-106.471436000">
        <ele>2021.600</ele>
        <time>2013-03-03T18:37:06Z</time>
        <name>WPT.509</name>
      </trkpt>
      <trkpt lat="35.270123000" lon="-106.471450000">
        <ele>2023.300</ele>
        <time>2013-03-03T18:37:09Z</time>
        <name>WPT.510</name>
      </trkpt>
      <trkpt lat="35.270150000" lon="-106.471466000">
        <ele>2022.500</ele>
        <time>2013-03-03T18:37:11Z</time>
        <name>WPT.511</name>
      </trkpt>
      <trkpt lat="35.270187000" lon="-106.471480000">
        <ele>2021.500</ele>
        <time>2013-03-03T18:37:14Z</time>
        <name>WPT.512</name>
      </trkpt>
      <trkpt lat="35.270218000" lon="-106.471504000">
        <ele>2021.200</ele>
        <time>2013-03-03T18:37:17Z</time>
        <name>WPT.513</name>
      </trkpt>
      <trkpt lat="35.270256000" lon="-106.471540000">
        <ele>2021.300</ele>
        <time>2013-03-03T18:37:21Z</time>
        <name>WPT.514</name>
      </trkpt>
      <trkpt lat="35.270287000" lon="-106.471565000">
        <ele>2021.100</ele>
        <time>2013-03-03T18:37:24Z</time>
        <name>WPT.515</name>
      </trkpt>
      <trkpt lat="35.270313000" lon="-106.471580000">
        <ele>2019.700</ele>
        <time>2013-03-03T18:37:27Z</time>
        <name>WPT.516</name>
      </trkpt>
      <trkpt lat="35.270336000" lon="-106.471600000">
        <ele>2020.900</ele>
        <time>2013-03-03T18:37:30Z</time>
        <name>WPT.517</name>
      </trkpt>
      <trkpt lat="35.270367000" lon="-106.471630000">
        <ele>2019.300</ele>
        <time>2013-03-03T18:37:33Z</time>
        <name>WPT.518</name>
      </trkpt>
      <trkpt lat="35.270390000" lon="-106.471650000">
        <ele>2017.900</ele>
        <time>2013-03-03T18:37:37Z</time>
        <name>WPT.519</name>
      </trkpt>
      <trkpt lat="35.270416000" lon="-106.471664000">
        <ele>2017.200</ele>
        <time>2013-03-03T18:37:40Z</time>
        <name>WPT.520</name>
      </trkpt>
      <trkpt lat="35.270450000" lon="-106.471670000">
        <ele>2017.100</ele>
        <time>2013-03-03T18:37:43Z</time>
        <name>WPT.521</name>
      </trkpt>
      <trkpt lat="35.270477000" lon="-106.471670000">
        <ele>2017.100</ele>
        <time>2013-03-03T18:37:46Z</time>
        <name>WPT.522</name>
      </trkpt>
      <trkpt lat="35.270510000" lon="-106.471680000">
        <ele>2016.500</ele>
        <time>2013-03-03T18:37:49Z</time>
        <name>WPT.523</name>
      </trkpt>
      <trkpt lat="35.270542000" lon="-106.471710000">
        <ele>2016.000</ele>
        <time>2013-03-03T18:37:52Z</time>
        <name>WPT.524</name>
      </trkpt>
      <trkpt lat="35.270565000" lon="-106.471730000">
        <ele>2015.100</ele>
        <time>2013-03-03T18:37:55Z</time>
        <name>WPT.525</name>
      </trkpt>
      <trkpt lat="35.270596000" lon="-106.471780000">
        <ele>2014.800</ele>
        <time>2013-03-03T18:37:59Z</time>
        <name>WPT.526</name>
      </trkpt>
      <trkpt lat="35.270615000" lon="-106.471800000">
        <ele>2013.600</ele>
        <time>2013-03-03T18:38:01Z</time>
        <name>WPT.527</name>
      </trkpt>
      <trkpt lat="35.270645000" lon="-106.471825000">
        <ele>2014.100</ele>
        <time>2013-03-03T18:38:07Z</time>
        <name>WPT.528</name>
      </trkpt>
      <trkpt lat="35.270680000" lon="-106.471850000">
        <ele>2013.900</ele>
        <time>2013-03-03T18:38:11Z</time>
        <name>WPT.529</name>
      </trkpt>
      <trkpt lat="35.270700000" lon="-106.471886000">
        <ele>2012.800</ele>
        <time>2013-03-03T18:38:16Z</time>
        <name>WPT.530</name>
      </trkpt>
      <trkpt lat="35.270702000" lon="-106.471930000">
        <ele>2012.600</ele>
        <time>2013-03-03T18:38:19Z</time>
        <name>WPT.531</name>
      </trkpt>
      <trkpt lat="35.270702000" lon="-106.471980000">
        <ele>2015.300</ele>
        <time>2013-03-03T18:38:22Z</time>
        <name>WPT.532</name>
      </trkpt>
      <trkpt lat="35.270700000" lon="-106.472030000">
        <ele>2017.000</ele>
        <time>2013-03-03T18:38:24Z</time>
        <name>WPT.533</name>
      </trkpt>
      <trkpt lat="35.270706000" lon="-106.472080000">
        <ele>2015.700</ele>
        <time>2013-03-03T18:38:27Z</time>
        <name>WPT.534</name>
      </trkpt>
      <trkpt lat="35.270710000" lon="-106.472110000">
        <ele>2017.400</ele>
        <time>2013-03-03T18:38:30Z</time>
        <name>WPT.535</name>
      </trkpt>
      <trkpt lat="35.270710000" lon="-106.472145000">
        <ele>2017.200</ele>
        <time>2013-03-03T18:38:38Z</time>
        <name>WPT.536</name>
      </trkpt>
      <trkpt lat="35.270702000" lon="-106.472176000">
        <ele>2018.700</ele>
        <time>2013-03-03T18:38:41Z</time>
        <name>WPT.537</name>
      </trkpt>
      <trkpt lat="35.270700000" lon="-106.472220000">
        <ele>2018.700</ele>
        <time>2013-03-03T18:38:44Z</time>
        <name>WPT.538</name>
      </trkpt>
      <trkpt lat="35.270700000" lon="-106.472270000">
        <ele>2020.300</ele>
        <time>2013-03-03T18:38:46Z</time>
        <name>WPT.539</name>
      </trkpt>
      <trkpt lat="35.270700000" lon="-106.472320000">
        <ele>2019.800</ele>
        <time>2013-03-03T18:38:48Z</time>
        <name>WPT.540</name>
      </trkpt>
      <trkpt lat="35.270700000" lon="-106.472360000">
        <ele>2019.000</ele>
        <time>2013-03-03T18:38:50Z</time>
        <name>WPT.541</name>
      </trkpt>
      <trkpt lat="35.270695000" lon="-106.472400000">
        <ele>2020.400</ele>
        <time>2013-03-03T18:38:52Z</time>
        <name>WPT.542</name>
      </trkpt>
      <trkpt lat="35.270690000" lon="-106.472435000">
        <ele>2020.800</ele>
        <time>2013-03-03T18:38:55Z</time>
        <name>WPT.543</name>
      </trkpt>
      <trkpt lat="35.270690000" lon="-106.472480000">
        <ele>2022.300</ele>
        <time>2013-03-03T18:38:58Z</time>
        <name>WPT.544</name>
      </trkpt>
      <trkpt lat="35.270690000" lon="-106.472520000">
        <ele>2021.700</ele>
        <time>2013-03-03T18:39:00Z</time>
        <name>WPT.545</name>
      </trkpt>
      <trkpt lat="35.270690000" lon="-106.472565000">
        <ele>2022.500</ele>
        <time>2013-03-03T18:39:03Z</time>
        <name>WPT.546</name>
      </trkpt>
      <trkpt lat="35.270683000" lon="-106.472610000">
        <ele>2021.900</ele>
        <time>2013-03-03T18:39:06Z</time>
        <name>WPT.547</name>
      </trkpt>
      <trkpt lat="35.270676000" lon="-106.472660000">
        <ele>2020.200</ele>
        <time>2013-03-03T18:39:09Z</time>
        <name>WPT.548</name>
      </trkpt>
      <trkpt lat="35.270695000" lon="-106.472694000">
        <ele>2019.600</ele>
        <time>2013-03-03T18:39:12Z</time>
        <name>WPT.549</name>
      </trkpt>
      <trkpt lat="35.270710000" lon="-106.472740000">
        <ele>2019.900</ele>
        <time>2013-03-03T18:39:15Z</time>
        <name>WPT.550</name>
      </trkpt>
      <trkpt lat="35.270737000" lon="-106.472780000">
        <ele>2019.400</ele>
        <time>2013-03-03T18:39:21Z</time>
        <name>WPT.551</name>
      </trkpt>
      <trkpt lat="35.270750000" lon="-106.472810000">
        <ele>2016.200</ele>
        <time>2013-03-03T18:39:24Z</time>
        <name>WPT.552</name>
      </trkpt>
      <trkpt lat="35.270752000" lon="-106.472850000">
        <ele>2015.300</ele>
        <time>2013-03-03T18:39:27Z</time>
        <name>WPT.553</name>
      </trkpt>
      <trkpt lat="35.270760000" lon="-106.472890000">
        <ele>2015.600</ele>
        <time>2013-03-03T18:39:30Z</time>
        <name>WPT.554</name>
      </trkpt>
      <trkpt lat="35.270763000" lon="-106.472930000">
        <ele>2014.300</ele>
        <time>2013-03-03T18:39:36Z</time>
        <name>WPT.555</name>
      </trkpt>
      <trkpt lat="35.270770000" lon="-106.472980000">
        <ele>2013.700</ele>
        <time>2013-03-03T18:39:39Z</time>
        <name>WPT.556</name>
      </trkpt>
      <trkpt lat="35.270775000" lon="-106.473015000">
        <ele>2014.700</ele>
        <time>2013-03-03T18:39:42Z</time>
        <name>WPT.557</name>
      </trkpt>
      <trkpt lat="35.270780000" lon="-106.473060000">
        <ele>2014.200</ele>
        <time>2013-03-03T18:39:46Z</time>
        <name>WPT.558</name>
      </trkpt>
      <trkpt lat="35.270782000" lon="-106.473100000">
        <ele>2012.100</ele>
        <time>2013-03-03T18:39:49Z</time>
        <name>WPT.559</name>
      </trkpt>
      <trkpt lat="35.270782000" lon="-106.473140000">
        <ele>2011.100</ele>
        <time>2013-03-03T18:39:52Z</time>
        <name>WPT.560</name>
      </trkpt>
      <trkpt lat="35.270786000" lon="-106.473180000">
        <ele>2009.900</ele>
        <time>2013-03-03T18:39:55Z</time>
        <name>WPT.561</name>
      </trkpt>
      <trkpt lat="35.270786000" lon="-106.473230000">
        <ele>2009.300</ele>
        <time>2013-03-03T18:39:58Z</time>
        <name>WPT.562</name>
      </trkpt>
      <trkpt lat="35.270790000" lon="-106.473270000">
        <ele>2008.600</ele>
        <time>2013-03-03T18:40:01Z</time>
        <name>WPT.563</name>
      </trkpt>
      <trkpt lat="35.270794000" lon="-106.473310000">
        <ele>2006.900</ele>
        <time>2013-03-03T18:40:11Z</time>
        <name>WPT.564</name>
      </trkpt>
      <trkpt lat="35.270794000" lon="-106.473350000">
        <ele>2007.400</ele>
        <time>2013-03-03T18:40:27Z</time>
        <name>WPT.565</name>
      </trkpt>
      <trkpt lat="35.270805000" lon="-106.473390000">
        <ele>2006.500</ele>
        <time>2013-03-03T18:40:44Z</time>
        <name>WPT.566</name>
      </trkpt>
      <trkpt lat="35.270817000" lon="-106.473420000">
        <ele>2004.400</ele>
        <time>2013-03-03T18:40:49Z</time>
        <name>WPT.567</name>
      </trkpt>
      <trkpt lat="35.270836000" lon="-106.473460000">
        <ele>2004.600</ele>
        <time>2013-03-03T18:40:53Z</time>
        <name>WPT.568</name>
      </trkpt>
      <trkpt lat="35.270870000" lon="-106.473490000">
        <ele>2006.600</ele>
        <time>2013-03-03T18:40:56Z</time>
        <name>WPT.569</name>
      </trkpt>
      <trkpt lat="35.270910000" lon="-106.473530000">
        <ele>2004.700</ele>
        <time>2013-03-03T18:41:18Z</time>
        <name>WPT.570</name>
      </trkpt>
      <trkpt lat="35.270930000" lon="-106.473570000">
        <ele>2002.700</ele>
        <time>2013-03-03T18:41:20Z</time>
        <name>WPT.571</name>
      </trkpt>
      <trkpt lat="35.270950000" lon="-106.473620000">
        <ele>2002.300</ele>
        <time>2013-03-03T18:41:21Z</time>
        <name>WPT.572</name>
      </trkpt>
      <trkpt lat="35.270970000" lon="-106.473670000">
        <ele>2001.800</ele>
        <time>2013-03-03T18:41:23Z</time>
        <name>WPT.573</name>
      </trkpt>
      <trkpt lat="35.270985000" lon="-106.473724000">
        <ele>2000.700</ele>
        <time>2013-03-03T18:41:26Z</time>
        <name>WPT.574</name>
      </trkpt>
      <trkpt lat="35.270996000" lon="-106.473760000">
        <ele>2001.200</ele>
        <time>2013-03-03T18:41:30Z</time>
        <name>WPT.575</name>
      </trkpt>
      <trkpt lat="35.271010000" lon="-106.473785000">
        <ele>1999.200</ele>
        <time>2013-03-03T18:41:48Z</time>
        <name>WPT.576</name>
      </trkpt>
      <trkpt lat="35.271050000" lon="-106.473816000">
        <ele>1998.800</ele>
        <time>2013-03-03T18:42:20Z</time>
        <name>WPT.577</name>
      </trkpt>
      <trkpt lat="35.271070000" lon="-106.473854000">
        <ele>1998.700</ele>
        <time>2013-03-03T18:42:24Z</time>
        <name>WPT.578</name>
      </trkpt>
      <trkpt lat="35.271088000" lon="-106.473900000">
        <ele>1996.700</ele>
        <time>2013-03-03T18:42:33Z</time>
        <name>WPT.579</name>
      </trkpt>
      <trkpt lat="35.271107000" lon="-106.473946000">
        <ele>1995.800</ele>
        <time>2013-03-03T18:42:43Z</time>
        <name>WPT.580</name>
      </trkpt>
      <trkpt lat="35.271130000" lon="-106.473976000">
        <ele>1995.300</ele>
        <time>2013-03-03T18:42:58Z</time>
        <name>WPT.581</name>
      </trkpt>
      <trkpt lat="35.271152000" lon="-106.474014000">
        <ele>1994.600</ele>
        <time>2013-03-03T18:43:03Z</time>
        <name>WPT.582</name>
      </trkpt>
      <trkpt lat="35.271200000" lon="-106.474070000">
        <ele>1993.400</ele>
        <time>2013-03-03T18:43:13Z</time>
        <name>WPT.583</name>
      </trkpt>
      <trkpt lat="35.271230000" lon="-106.474120000">
        <ele>1992.700</ele>
        <time>2013-03-03T18:43:17Z</time>
        <name>WPT.584</name>
      </trkpt>
      <trkpt lat="35.271260000" lon="-106.474180000">
        <ele>1993.800</ele>
        <time>2013-03-03T18:43:20Z</time>
        <name>WPT.585</name>
      </trkpt>
      <trkpt lat="35.271286000" lon="-106.474236000">
        <ele>1992.600</ele>
        <time>2013-03-03T18:43:23Z</time>
        <name>WPT.586</name>
      </trkpt>
      <trkpt lat="35.271317000" lon="-106.474266000">
        <ele>1992.700</ele>
        <time>2013-03-03T18:43:26Z</time>
        <name>WPT.587</name>
      </trkpt>
      <trkpt lat="35.271343000" lon="-106.474300000">
        <ele>1991.700</ele>
        <time>2013-03-03T18:43:29Z</time>
        <name>WPT.588</name>
      </trkpt>
      <trkpt lat="35.271374000" lon="-106.474330000">
        <ele>1990.600</ele>
        <time>2013-03-03T18:43:32Z</time>
        <name>WPT.589</name>
      </trkpt>
      <trkpt lat="35.271404000" lon="-106.474360000">
        <ele>1990.900</ele>
        <time>2013-03-03T18:43:35Z</time>
        <name>WPT.590</name>
      </trkpt>
      <trkpt lat="35.271430000" lon="-106.474390000">
        <ele>1990.500</ele>
        <time>2013-03-03T18:43:38Z</time>
        <name>WPT.591</name>
      </trkpt>
      <trkpt lat="35.271458000" lon="-106.474400000">
        <ele>1987.900</ele>
        <time>2013-03-03T18:43:41Z</time>
        <name>WPT.592</name>
      </trkpt>
      <trkpt lat="35.271484000" lon="-106.474396000">
        <ele>1986.300</ele>
        <time>2013-03-03T18:43:49Z</time>
        <name>WPT.593</name>
      </trkpt>
      <trkpt lat="35.271510000" lon="-106.474400000">
        <ele>1986.500</ele>
        <time>2013-03-03T18:43:57Z</time>
        <name>WPT.594</name>
      </trkpt>
      <trkpt lat="35.271538000" lon="-106.474400000">
        <ele>1985.700</ele>
        <time>2013-03-03T18:44:00Z</time>
        <name>WPT.595</name>
      </trkpt>
      <trkpt lat="35.271584000" lon="-106.474390000">
        <ele>1983.000</ele>
        <time>2013-03-03T18:44:04Z</time>
        <name>WPT.596</name>
      </trkpt>
      <trkpt lat="35.271620000" lon="-106.474380000">
        <ele>1983.100</ele>
        <time>2013-03-03T18:44:07Z</time>
        <name>WPT.597</name>
      </trkpt>
      <trkpt lat="35.271650000" lon="-106.474365000">
        <ele>1982.000</ele>
        <time>2013-03-03T18:44:15Z</time>
        <name>WPT.598</name>
      </trkpt>
      <trkpt lat="35.271683000" lon="-106.474350000">
        <ele>1977.900</ele>
        <time>2013-03-03T18:44:22Z</time>
        <name>WPT.599</name>
      </trkpt>
      <trkpt lat="35.271713000" lon="-106.474340000">
        <ele>1976.800</ele>
        <time>2013-03-03T18:44:25Z</time>
        <name>WPT.600</name>
      </trkpt>
      <trkpt lat="35.271744000" lon="-106.474330000">
        <ele>1975.200</ele>
        <time>2013-03-03T18:44:28Z</time>
        <name>WPT.601</name>
      </trkpt>
      <trkpt lat="35.271767000" lon="-106.474320000">
        <ele>1971.300</ele>
        <time>2013-03-03T18:44:32Z</time>
        <name>WPT.602</name>
      </trkpt>
      <trkpt lat="35.271793000" lon="-106.474290000">
        <ele>1970.700</ele>
        <time>2013-03-03T18:44:36Z</time>
        <name>WPT.603</name>
      </trkpt>
      <trkpt lat="35.271830000" lon="-106.474270000">
        <ele>1970.000</ele>
        <time>2013-03-03T18:44:44Z</time>
        <name>WPT.604</name>
      </trkpt>
      <trkpt lat="35.271862000" lon="-106.474260000">
        <ele>1970.200</ele>
        <time>2013-03-03T18:44:48Z</time>
        <name>WPT.605</name>
      </trkpt>
      <trkpt lat="35.271890000" lon="-106.474250000">
        <ele>1970.200</ele>
        <time>2013-03-03T18:44:51Z</time>
        <name>WPT.606</name>
      </trkpt>
      <trkpt lat="35.271915000" lon="-106.474240000">
        <ele>1969.700</ele>
        <time>2013-03-03T18:44:56Z</time>
        <name>WPT.607</name>
      </trkpt>
      <trkpt lat="35.271942000" lon="-106.474240000">
        <ele>1967.500</ele>
        <time>2013-03-03T18:44:59Z</time>
        <name>WPT.608</name>
      </trkpt>
      <trkpt lat="35.271980000" lon="-106.474240000">
        <ele>1967.000</ele>
        <time>2013-03-03T18:45:01Z</time>
        <name>WPT.609</name>
      </trkpt>
      <trkpt lat="35.272010000" lon="-106.474236000">
        <ele>1967.200</ele>
        <time>2013-03-03T18:45:03Z</time>
        <name>WPT.610</name>
      </trkpt>
      <trkpt lat="35.272152000" lon="-106.474170000">
        <ele>1960.500</ele>
        <time>2013-03-03T18:45:12Z</time>
        <name>WPT.611</name>
      </trkpt>
      <trkpt lat="35.272167000" lon="-106.474190000">
        <ele>1964.300</ele>
        <time>2013-03-03T18:45:18Z</time>
        <name>WPT.612</name>
      </trkpt>
      <trkpt lat="35.272230000" lon="-106.474160000">
        <ele>1964.100</ele>
        <time>2013-03-03T18:45:21Z</time>
        <name>WPT.613</name>
      </trkpt>
      <trkpt lat="35.272266000" lon="-106.474144000">
        <ele>1962.600</ele>
        <time>2013-03-03T18:45:25Z</time>
        <name>WPT.614</name>
      </trkpt>
      <trkpt lat="35.272293000" lon="-106.474140000">
        <ele>1964.400</ele>
        <time>2013-03-03T18:45:28Z</time>
        <name>WPT.615</name>
      </trkpt>
      <trkpt lat="35.272324000" lon="-106.474140000">
        <ele>1964.500</ele>
        <time>2013-03-03T18:45:30Z</time>
        <name>WPT.616</name>
      </trkpt>
      <trkpt lat="35.272354000" lon="-106.474144000">
        <ele>1962.000</ele>
        <time>2013-03-03T18:45:33Z</time>
        <name>WPT.617</name>
      </trkpt>
      <trkpt lat="35.272370000" lon="-106.474144000">
        <ele>1957.800</ele>
        <time>2013-03-03T18:45:47Z</time>
        <name>WPT.618</name>
      </trkpt>
      <trkpt lat="35.272404000" lon="-106.474130000">
        <ele>1958.200</ele>
        <time>2013-03-03T18:45:51Z</time>
        <name>WPT.619</name>
      </trkpt>
      <trkpt lat="35.272420000" lon="-106.474090000">
        <ele>1954.900</ele>
        <time>2013-03-03T18:45:56Z</time>
        <name>WPT.620</name>
      </trkpt>
      <trkpt lat="35.272430000" lon="-106.474030000">
        <ele>1951.200</ele>
        <time>2013-03-03T18:46:06Z</time>
        <name>WPT.621</name>
      </trkpt>
      <trkpt lat="35.272457000" lon="-106.473950000">
        <ele>1949.900</ele>
        <time>2013-03-03T18:46:20Z</time>
        <name>WPT.622</name>
      </trkpt>
      <trkpt lat="35.272484000" lon="-106.473890000">
        <ele>1948.700</ele>
        <time>2013-03-03T18:46:26Z</time>
        <name>WPT.623</name>
      </trkpt>
      <trkpt lat="35.272522000" lon="-106.473854000">
        <ele>1947.600</ele>
        <time>2013-03-03T18:46:36Z</time>
        <name>WPT.624</name>
      </trkpt>
      <trkpt lat="35.272560000" lon="-106.473810000">
        <ele>1946.700</ele>
        <time>2013-03-03T18:46:45Z</time>
        <name>WPT.625</name>
      </trkpt>
      <trkpt lat="35.272617000" lon="-106.473780000">
        <ele>1945.500</ele>
        <time>2013-03-03T18:46:49Z</time>
        <name>WPT.626</name>
      </trkpt>
      <trkpt lat="35.272675000" lon="-106.473724000">
        <ele>1944.600</ele>
        <time>2013-03-03T18:46:53Z</time>
        <name>WPT.627</name>
      </trkpt>
      <trkpt lat="35.272728000" lon="-106.473680000">
        <ele>1943.400</ele>
        <time>2013-03-03T18:46:58Z</time>
        <name>WPT.628</name>
      </trkpt>
      <trkpt lat="35.272760000" lon="-106.473656000">
        <ele>1943.700</ele>
        <time>2013-03-03T18:47:02Z</time>
        <name>WPT.629</name>
      </trkpt>
      <trkpt lat="35.272810000" lon="-106.473595000">
        <ele>1939.900</ele>
        <time>2013-03-03T18:47:10Z</time>
        <name>WPT.630</name>
      </trkpt>
      <trkpt lat="35.272860000" lon="-106.473526000">
        <ele>1939.100</ele>
        <time>2013-03-03T18:47:14Z</time>
        <name>WPT.631</name>
      </trkpt>
      <trkpt lat="35.272915000" lon="-106.473490000">
        <ele>1942.200</ele>
        <time>2013-03-03T18:47:17Z</time>
        <name>WPT.632</name>
      </trkpt>
      <trkpt lat="35.272870000" lon="-106.473430000">
        <ele>1943.300</ele>
        <time>2013-03-03T18:47:28Z</time>
        <name>WPT.633</name>
      </trkpt>
      <trkpt lat="35.272873000" lon="-106.473404000">
        <ele>1941.000</ele>
        <time>2013-03-03T18:47:43Z</time>
        <name>WPT.634</name>
      </trkpt>
      <trkpt lat="35.272926000" lon="-106.473360000">
        <ele>1940.800</ele>
        <time>2013-03-03T18:47:49Z</time>
        <name>WPT.635</name>
      </trkpt>
      <trkpt lat="35.272957000" lon="-106.473310000">
        <ele>1941.100</ele>
        <time>2013-03-03T18:47:53Z</time>
        <name>WPT.636</name>
      </trkpt>
      <trkpt lat="35.272987000" lon="-106.473270000">
        <ele>1939.300</ele>
        <time>2013-03-03T18:47:57Z</time>
        <name>WPT.637</name>
      </trkpt>
      <trkpt lat="35.273010000" lon="-106.473236000">
        <ele>1936.700</ele>
        <time>2013-03-03T18:48:08Z</time>
        <name>WPT.638</name>
      </trkpt>
      <trkpt lat="35.273030000" lon="-106.473210000">
        <ele>1936.900</ele>
        <time>2013-03-03T18:48:19Z</time>
        <name>WPT.639</name>
      </trkpt>
      <trkpt lat="35.273167000" lon="-106.473250000">
        <ele>1922.600</ele>
        <time>2013-03-03T18:48:37Z</time>
        <name>WPT.640</name>
      </trkpt>
      <trkpt lat="35.273230000" lon="-106.473274000">
        <ele>1936.100</ele>
        <time>2013-03-03T18:48:39Z</time>
        <name>WPT.641</name>
      </trkpt>
      <trkpt lat="35.273186000" lon="-106.473330000">
        <ele>1935.300</ele>
        <time>2013-03-03T18:48:44Z</time>
        <name>WPT.642</name>
      </trkpt>
      <trkpt lat="35.273212000" lon="-106.473390000">
        <ele>1934.400</ele>
        <time>2013-03-03T18:48:56Z</time>
        <name>WPT.643</name>
      </trkpt>
      <trkpt lat="35.273243000" lon="-106.473420000">
        <ele>1929.400</ele>
        <time>2013-03-03T18:49:00Z</time>
        <name>WPT.644</name>
      </trkpt>
      <trkpt lat="35.273277000" lon="-106.473400000">
        <ele>1922.600</ele>
        <time>2013-03-03T18:49:32Z</time>
        <name>WPT.645</name>
      </trkpt>
      <trkpt lat="35.273388000" lon="-106.473274000">
        <ele>1918.200</ele>
        <time>2013-03-03T18:49:56Z</time>
        <name>WPT.646</name>
      </trkpt>
      <trkpt lat="35.273420000" lon="-106.473240000">
        <ele>1915.100</ele>
        <time>2013-03-03T18:50:05Z</time>
        <name>WPT.647</name>
      </trkpt>
      <trkpt lat="35.273460000" lon="-106.473260000">
        <ele>1911.800</ele>
        <time>2013-03-03T18:50:07Z</time>
        <name>WPT.648</name>
      </trkpt>
      <trkpt lat="35.273514000" lon="-106.473270000">
        <ele>1916.700</ele>
        <time>2013-03-03T18:50:11Z</time>
        <name>WPT.649</name>
      </trkpt>
      <trkpt lat="35.273563000" lon="-106.473250000">
        <ele>1915.600</ele>
        <time>2013-03-03T18:50:15Z</time>
        <name>WPT.650</name>
      </trkpt>
      <trkpt lat="35.273617000" lon="-106.473236000">
        <ele>1915.400</ele>
        <time>2013-03-03T18:50:19Z</time>
        <name>WPT.651</name>
      </trkpt>
      <trkpt lat="35.273650000" lon="-106.473210000">
        <ele>1914.500</ele>
        <time>2013-03-03T18:50:21Z</time>
        <name>WPT.652</name>
      </trkpt>
      <trkpt lat="35.273690000" lon="-106.473180000">
        <ele>1915.300</ele>
        <time>2013-03-03T18:50:25Z</time>
        <name>WPT.653</name>
      </trkpt>
      <trkpt lat="35.273716000" lon="-106.473170000">
        <ele>1913.500</ele>
        <time>2013-03-03T18:50:27Z</time>
        <name>WPT.654</name>
      </trkpt>
      <trkpt lat="35.273903000" lon="-106.473000000">
        <ele>1899.300</ele>
        <time>2013-03-03T18:50:37Z</time>
        <name>WPT.655</name>
      </trkpt>
      <trkpt lat="35.273945000" lon="-106.472960000">
        <ele>1906.600</ele>
        <time>2013-03-03T18:50:49Z</time>
        <name>WPT.656</name>
      </trkpt>
      <trkpt lat="35.274002000" lon="-106.472980000">
        <ele>1909.900</ele>
        <time>2013-03-03T18:50:56Z</time>
        <name>WPT.657</name>
      </trkpt>
      <trkpt lat="35.274063000" lon="-106.472990000">
        <ele>1912.200</ele>
        <time>2013-03-03T18:51:03Z</time>
        <name>WPT.658</name>
      </trkpt>
      <trkpt lat="35.274110000" lon="-106.473010000">
        <ele>1913.200</ele>
        <time>2013-03-03T18:51:15Z</time>
        <name>WPT.659</name>
      </trkpt>
      <trkpt lat="35.274147000" lon="-106.473015000">
        <ele>1913.700</ele>
        <time>2013-03-03T18:51:19Z</time>
        <name>WPT.660</name>
      </trkpt>
      <trkpt lat="35.274178000" lon="-106.473015000">
        <ele>1914.100</ele>
        <time>2013-03-03T18:51:21Z</time>
        <name>WPT.661</name>
      </trkpt>
      <trkpt lat="35.274210000" lon="-106.473015000">
        <ele>1912.400</ele>
        <time>2013-03-03T18:51:23Z</time>
        <name>WPT.662</name>
      </trkpt>
      <trkpt lat="35.274250000" lon="-106.473010000">
        <ele>1913.200</ele>
        <time>2013-03-03T18:51:26Z</time>
        <name>WPT.663</name>
      </trkpt>
      <trkpt lat="35.274280000" lon="-106.472984000">
        <ele>1909.900</ele>
        <time>2013-03-03T18:51:28Z</time>
        <name>WPT.664</name>
      </trkpt>
      <trkpt lat="35.274307000" lon="-106.472980000">
        <ele>1909.400</ele>
        <time>2013-03-03T18:51:30Z</time>
        <name>WPT.665</name>
      </trkpt>
      <trkpt lat="35.274345000" lon="-106.472960000">
        <ele>1910.400</ele>
        <time>2013-03-03T18:51:38Z</time>
        <name>WPT.666</name>
      </trkpt>
      <trkpt lat="35.274380000" lon="-106.472980000">
        <ele>1913.900</ele>
        <time>2013-03-03T18:51:42Z</time>
        <name>WPT.667</name>
      </trkpt>
      <trkpt lat="35.274414000" lon="-106.472984000">
        <ele>1914.000</ele>
        <time>2013-03-03T18:51:45Z</time>
        <name>WPT.668</name>
      </trkpt>
      <trkpt lat="35.274445000" lon="-106.473000000">
        <ele>1909.700</ele>
        <time>2013-03-03T18:51:48Z</time>
        <name>WPT.669</name>
      </trkpt>
      <trkpt lat="35.274470000" lon="-106.473010000">
        <ele>1906.600</ele>
        <time>2013-03-03T18:51:51Z</time>
        <name>WPT.670</name>
      </trkpt>
      <trkpt lat="35.274500000" lon="-106.473040000">
        <ele>1903.900</ele>
        <time>2013-03-03T18:52:05Z</time>
        <name>WPT.671</name>
      </trkpt>
      <trkpt lat="35.274520000" lon="-106.473076000">
        <ele>1902.300</ele>
        <time>2013-03-03T18:52:11Z</time>
        <name>WPT.672</name>
      </trkpt>
      <trkpt lat="35.274544000" lon="-106.473114000">
        <ele>1902.300</ele>
        <time>2013-03-03T18:52:14Z</time>
        <name>WPT.673</name>
      </trkpt>
      <trkpt lat="35.274612000" lon="-106.473170000">
        <ele>1901.700</ele>
        <time>2013-03-03T18:52:25Z</time>
        <name>WPT.674</name>
      </trkpt>
      <trkpt lat="35.274690000" lon="-106.473230000">
        <ele>1901.100</ele>
        <time>2013-03-03T18:52:31Z</time>
        <name>WPT.675</name>
      </trkpt>
      <trkpt lat="35.274788000" lon="-106.473290000">
        <ele>1897.400</ele>
        <time>2013-03-03T18:52:44Z</time>
        <name>WPT.676</name>
      </trkpt>
      <trkpt lat="35.275146000" lon="-106.473595000">
        <ele>1912.000</ele>
        <time>2013-03-03T18:53:06Z</time>
        <name>WPT.677</name>
      </trkpt>
      <trkpt lat="35.275196000" lon="-106.473580000">
        <ele>1908.300</ele>
        <time>2013-03-03T18:53:14Z</time>
        <name>WPT.678</name>
      </trkpt>
      <trkpt lat="35.275230000" lon="-106.473590000">
        <ele>1909.500</ele>
        <time>2013-03-03T18:53:18Z</time>
        <name>WPT.679</name>
      </trkpt>
      <trkpt lat="35.275276000" lon="-106.473595000">
        <ele>1909.100</ele>
        <time>2013-03-03T18:53:21Z</time>
        <name>WPT.680</name>
      </trkpt>
      <trkpt lat="35.275326000" lon="-106.473590000">
        <ele>1906.200</ele>
        <time>2013-03-03T18:53:23Z</time>
        <name>WPT.681</name>
      </trkpt>
      <trkpt lat="35.275345000" lon="-106.473580000">
        <ele>1903.000</ele>
        <time>2013-03-03T18:53:35Z</time>
        <name>WPT.682</name>
      </trkpt>
      <trkpt lat="35.275380000" lon="-106.473590000">
        <ele>1902.000</ele>
        <time>2013-03-03T18:53:43Z</time>
        <name>WPT.683</name>
      </trkpt>
      <trkpt lat="35.275420000" lon="-106.473595000">
        <ele>1902.900</ele>
        <time>2013-03-03T18:53:51Z</time>
        <name>WPT.684</name>
      </trkpt>
      <trkpt lat="35.275460000" lon="-106.473580000">
        <ele>1899.700</ele>
        <time>2013-03-03T18:53:54Z</time>
        <name>WPT.685</name>
      </trkpt>
      <trkpt lat="35.275500000" lon="-106.473564000">
        <ele>1899.900</ele>
        <time>2013-03-03T18:53:56Z</time>
        <name>WPT.686</name>
      </trkpt>
      <trkpt lat="35.275555000" lon="-106.473560000">
        <ele>1899.100</ele>
        <time>2013-03-03T18:53:58Z</time>
        <name>WPT.687</name>
      </trkpt>
      <trkpt lat="35.275650000" lon="-106.473564000">
        <ele>1897.100</ele>
        <time>2013-03-03T18:54:03Z</time>
        <name>WPT.688</name>
      </trkpt>
      <trkpt lat="35.275726000" lon="-106.473600000">
        <ele>1899.300</ele>
        <time>2013-03-03T18:54:09Z</time>
        <name>WPT.689</name>
      </trkpt>
      <trkpt lat="35.275814000" lon="-106.473595000">
        <ele>1897.900</ele>
        <time>2013-03-03T18:54:18Z</time>
        <name>WPT.690</name>
      </trkpt>
      <trkpt lat="35.275898000" lon="-106.473595000">
        <ele>1898.800</ele>
        <time>2013-03-03T18:54:26Z</time>
        <name>WPT.691</name>
      </trkpt>
      <trkpt lat="35.275993000" lon="-106.473625000">
        <ele>1899.600</ele>
        <time>2013-03-03T18:54:44Z</time>
        <name>WPT.692</name>
      </trkpt>
      <trkpt lat="35.276085000" lon="-106.473740000">
        <ele>1899.900</ele>
        <time>2013-03-03T18:55:06Z</time>
        <name>WPT.693</name>
      </trkpt>
      <trkpt lat="35.276100000" lon="-106.473770000">
        <ele>1900.400</ele>
        <time>2013-03-03T18:55:08Z</time>
        <name>WPT.694</name>
      </trkpt>
      <trkpt lat="35.276123000" lon="-106.473790000">
        <ele>1899.800</ele>
        <time>2013-03-03T18:55:16Z</time>
        <name>WPT.695</name>
      </trkpt>
      <trkpt lat="35.276146000" lon="-106.473810000">
        <ele>1898.000</ele>
        <time>2013-03-03T18:55:21Z</time>
        <name>WPT.696</name>
      </trkpt>
      <trkpt lat="35.276200000" lon="-106.473830000">
        <ele>1896.700</ele>
        <time>2013-03-03T18:55:25Z</time>
        <name>WPT.697</name>
      </trkpt>
      <trkpt lat="35.276230000" lon="-106.473850000">
        <ele>1898.500</ele>
        <time>2013-03-03T18:55:27Z</time>
        <name>WPT.698</name>
      </trkpt>
      <trkpt lat="35.276257000" lon="-106.473880000">
        <ele>1899.200</ele>
        <time>2013-03-03T18:55:29Z</time>
        <name>WPT.699</name>
      </trkpt>
      <trkpt lat="35.276270000" lon="-106.473910000">
        <ele>1897.400</ele>
        <time>2013-03-03T18:55:31Z</time>
        <name>WPT.700</name>
      </trkpt>
      <trkpt lat="35.276287000" lon="-106.473940000">
        <ele>1896.700</ele>
        <time>2013-03-03T18:55:34Z</time>
        <name>WPT.701</name>
      </trkpt>
      <trkpt lat="35.276302000" lon="-106.473970000">
        <ele>1895.400</ele>
        <time>2013-03-03T18:55:39Z</time>
        <name>WPT.702</name>
      </trkpt>
      <trkpt lat="35.276325000" lon="-106.473990000">
        <ele>1894.500</ele>
        <time>2013-03-03T18:55:43Z</time>
        <name>WPT.703</name>
      </trkpt>
      <trkpt lat="35.276352000" lon="-106.474040000">
        <ele>1893.900</ele>
        <time>2013-03-03T18:55:48Z</time>
        <name>WPT.704</name>
      </trkpt>
      <trkpt lat="35.276380000" lon="-106.474060000">
        <ele>1893.300</ele>
        <time>2013-03-03T18:55:53Z</time>
        <name>WPT.705</name>
      </trkpt>
      <trkpt lat="35.276405000" lon="-106.474075000">
        <ele>1892.900</ele>
        <time>2013-03-03T18:56:01Z</time>
        <name>WPT.706</name>
      </trkpt>
      <trkpt lat="35.276432000" lon="-106.474075000">
        <ele>1891.800</ele>
        <time>2013-03-03T18:56:07Z</time>
        <name>WPT.707</name>
      </trkpt>
      <trkpt lat="35.276463000" lon="-106.474080000">
        <ele>1890.000</ele>
        <time>2013-03-03T18:56:21Z</time>
        <name>WPT.708</name>
      </trkpt>
      <trkpt lat="35.276490000" lon="-106.474080000">
        <ele>1889.100</ele>
        <time>2013-03-03T18:56:28Z</time>
        <name>WPT.709</name>
      </trkpt>
      <trkpt lat="35.276530000" lon="-106.474090000">
        <ele>1889.200</ele>
        <time>2013-03-03T18:56:33Z</time>
        <name>WPT.710</name>
      </trkpt>
      <trkpt lat="35.276585000" lon="-106.474090000">
        <ele>1889.400</ele>
        <time>2013-03-03T18:56:37Z</time>
        <name>WPT.711</name>
      </trkpt>
      <trkpt lat="35.276650000" lon="-106.474100000">
        <ele>1884.500</ele>
        <time>2013-03-03T18:56:44Z</time>
        <name>WPT.712</name>
      </trkpt>
      <trkpt lat="35.276695000" lon="-106.474106000">
        <ele>1885.900</ele>
        <time>2013-03-03T18:56:48Z</time>
        <name>WPT.713</name>
      </trkpt>
      <trkpt lat="35.276745000" lon="-106.474150000">
        <ele>1887.000</ele>
        <time>2013-03-03T18:56:52Z</time>
        <name>WPT.714</name>
      </trkpt>
      <trkpt lat="35.276780000" lon="-106.474174000">
        <ele>1887.500</ele>
        <time>2013-03-03T18:56:55Z</time>
        <name>WPT.715</name>
      </trkpt>
      <trkpt lat="35.276836000" lon="-106.474236000">
        <ele>1887.500</ele>
        <time>2013-03-03T18:56:59Z</time>
        <name>WPT.716</name>
      </trkpt>
      <trkpt lat="35.276860000" lon="-106.474260000">
        <ele>1887.600</ele>
        <time>2013-03-03T18:57:01Z</time>
        <name>WPT.717</name>
      </trkpt>
      <trkpt lat="35.276886000" lon="-106.474300000">
        <ele>1888.800</ele>
        <time>2013-03-03T18:57:04Z</time>
        <name>WPT.718</name>
      </trkpt>
      <trkpt lat="35.276900000" lon="-106.474330000">
        <ele>1890.200</ele>
        <time>2013-03-03T18:57:07Z</time>
        <name>WPT.719</name>
      </trkpt>
      <trkpt lat="35.276924000" lon="-106.474350000">
        <ele>1889.800</ele>
        <time>2013-03-03T18:57:16Z</time>
        <name>WPT.720</name>
      </trkpt>
      <trkpt lat="35.276962000" lon="-106.474370000">
        <ele>1886.500</ele>
        <time>2013-03-03T18:57:22Z</time>
        <name>WPT.721</name>
      </trkpt>
      <trkpt lat="35.276978000" lon="-106.474390000">
        <ele>1883.400</ele>
        <time>2013-03-03T18:57:24Z</time>
        <name>WPT.722</name>
      </trkpt>
      <trkpt lat="35.277000000" lon="-106.474410000">
        <ele>1882.000</ele>
        <time>2013-03-03T18:57:27Z</time>
        <name>WPT.723</name>
      </trkpt>
      <trkpt lat="35.277010000" lon="-106.474460000">
        <ele>1879.800</ele>
        <time>2013-03-03T18:57:33Z</time>
        <name>WPT.724</name>
      </trkpt>
      <trkpt lat="35.276978000" lon="-106.474480000">
        <ele>1879.300</ele>
        <time>2013-03-03T18:57:39Z</time>
        <name>WPT.725</name>
      </trkpt>
      <trkpt lat="35.276966000" lon="-106.474434000">
        <ele>1880.700</ele>
        <time>2013-03-03T18:57:45Z</time>
        <name>WPT.726</name>
      </trkpt>
      <trkpt lat="35.276930000" lon="-106.474430000">
        <ele>1878.700</ele>
        <time>2013-03-03T18:57:49Z</time>
        <name>WPT.727</name>
      </trkpt>
      <trkpt lat="35.276890000" lon="-106.474434000">
        <ele>1876.800</ele>
        <time>2013-03-03T18:57:52Z</time>
        <name>WPT.728</name>
      </trkpt>
      <trkpt lat="35.276848000" lon="-106.474440000">
        <ele>1877.700</ele>
        <time>2013-03-03T18:57:55Z</time>
        <name>WPT.729</name>
      </trkpt>
      <trkpt lat="35.276790000" lon="-106.474440000">
        <ele>1874.600</ele>
        <time>2013-03-03T18:57:59Z</time>
        <name>WPT.730</name>
      </trkpt>
      <trkpt lat="35.276752000" lon="-106.474464000">
        <ele>1874.700</ele>
        <time>2013-03-03T18:58:03Z</time>
        <name>WPT.731</name>
      </trkpt>
      <trkpt lat="35.276722000" lon="-106.474460000">
        <ele>1873.300</ele>
        <time>2013-03-03T18:58:19Z</time>
        <name>WPT.732</name>
      </trkpt>
      <trkpt lat="35.276684000" lon="-106.474470000">
        <ele>1871.900</ele>
        <time>2013-03-03T18:58:23Z</time>
        <name>WPT.733</name>
      </trkpt>
      <trkpt lat="35.276680000" lon="-106.474520000">
        <ele>1872.200</ele>
        <time>2013-03-03T18:58:29Z</time>
        <name>WPT.734</name>
      </trkpt>
      <trkpt lat="35.276700000" lon="-106.474550000">
        <ele>1869.800</ele>
        <time>2013-03-03T18:58:32Z</time>
        <name>WPT.735</name>
      </trkpt>
      <trkpt lat="35.276707000" lon="-106.474594000">
        <ele>1869.100</ele>
        <time>2013-03-03T18:58:36Z</time>
        <name>WPT.736</name>
      </trkpt>
      <trkpt lat="35.276690000" lon="-106.474630000">
        <ele>1868.900</ele>
        <time>2013-03-03T18:58:39Z</time>
        <name>WPT.737</name>
      </trkpt>
      <trkpt lat="35.276665000" lon="-106.474650000">
        <ele>1868.000</ele>
        <time>2013-03-03T18:58:42Z</time>
        <name>WPT.738</name>
      </trkpt>
      <trkpt lat="35.276630000" lon="-106.474670000">
        <ele>1868.300</ele>
        <time>2013-03-03T18:58:46Z</time>
        <name>WPT.739</name>
      </trkpt>
      <trkpt lat="35.276596000" lon="-106.474690000">
        <ele>1867.500</ele>
        <time>2013-03-03T18:58:50Z</time>
        <name>WPT.740</name>
      </trkpt>
      <trkpt lat="35.276546000" lon="-106.474710000">
        <ele>1864.200</ele>
        <time>2013-03-03T18:58:53Z</time>
        <name>WPT.741</name>
      </trkpt>
      <trkpt lat="35.276505000" lon="-106.474730000">
        <ele>1864.200</ele>
        <time>2013-03-03T18:59:08Z</time>
        <name>WPT.742</name>
      </trkpt>
      <trkpt lat="35.276527000" lon="-106.474760000">
        <ele>1862.800</ele>
        <time>2013-03-03T18:59:22Z</time>
        <name>WPT.743</name>
      </trkpt>
      <trkpt lat="35.276546000" lon="-106.474790000">
        <ele>1862.500</ele>
        <time>2013-03-03T18:59:24Z</time>
        <name>WPT.744</name>
      </trkpt>
      <trkpt lat="35.276570000" lon="-106.474830000">
        <ele>1860.900</ele>
        <time>2013-03-03T18:59:27Z</time>
        <name>WPT.745</name>
      </trkpt>
      <trkpt lat="35.276608000" lon="-106.474860000">
        <ele>1861.100</ele>
        <time>2013-03-03T18:59:31Z</time>
        <name>WPT.746</name>
      </trkpt>
      <trkpt lat="35.276646000" lon="-106.474870000">
        <ele>1860.600</ele>
        <time>2013-03-03T18:59:34Z</time>
        <name>WPT.747</name>
      </trkpt>
      <trkpt lat="35.276684000" lon="-106.474880000">
        <ele>1860.100</ele>
        <time>2013-03-03T18:59:37Z</time>
        <name>WPT.748</name>
      </trkpt>
      <trkpt lat="35.276730000" lon="-106.474884000">
        <ele>1858.900</ele>
        <time>2013-03-03T18:59:41Z</time>
        <name>WPT.749</name>
      </trkpt>
      <trkpt lat="35.276770000" lon="-106.474884000">
        <ele>1857.000</ele>
        <time>2013-03-03T18:59:44Z</time>
        <name>WPT.750</name>
      </trkpt>
      <trkpt lat="35.276814000" lon="-106.474884000">
        <ele>1856.600</ele>
        <time>2013-03-03T18:59:48Z</time>
        <name>WPT.751</name>
      </trkpt>
      <trkpt lat="35.276844000" lon="-106.474890000">
        <ele>1858.700</ele>
        <time>2013-03-03T18:59:51Z</time>
        <name>WPT.752</name>
      </trkpt>
      <trkpt lat="35.276882000" lon="-106.474900000">
        <ele>1859.700</ele>
        <time>2013-03-03T18:59:54Z</time>
        <name>WPT.753</name>
      </trkpt>
      <trkpt lat="35.276920000" lon="-106.474910000">
        <ele>1858.000</ele>
        <time>2013-03-03T18:59:57Z</time>
        <name>WPT.754</name>
      </trkpt>
      <trkpt lat="35.276962000" lon="-106.474920000">
        <ele>1857.000</ele>
        <time>2013-03-03T19:00:00Z</time>
        <name>WPT.755</name>
      </trkpt>
      <trkpt lat="35.276993000" lon="-106.474930000">
        <ele>1857.500</ele>
        <time>2013-03-03T19:00:02Z</time>
        <name>WPT.756</name>
      </trkpt>
      <trkpt lat="35.277023000" lon="-106.474940000">
        <ele>1855.600</ele>
        <time>2013-03-03T19:00:04Z</time>
        <name>WPT.757</name>
      </trkpt>
      <trkpt lat="35.277060000" lon="-106.474960000">
        <ele>1855.900</ele>
        <time>2013-03-03T19:00:07Z</time>
        <name>WPT.758</name>
      </trkpt>
      <trkpt lat="35.277084000" lon="-106.474976000">
        <ele>1856.800</ele>
        <time>2013-03-03T19:00:09Z</time>
        <name>WPT.759</name>
      </trkpt>
      <trkpt lat="35.277120000" lon="-106.475000000">
        <ele>1858.000</ele>
        <time>2013-03-03T19:00:12Z</time>
        <name>WPT.760</name>
      </trkpt>
      <trkpt lat="35.277172000" lon="-106.475030000">
        <ele>1856.100</ele>
        <time>2013-03-03T19:00:17Z</time>
        <name>WPT.761</name>
      </trkpt>
      <trkpt lat="35.277184000" lon="-106.475070000">
        <ele>1855.900</ele>
        <time>2013-03-03T19:00:20Z</time>
        <name>WPT.762</name>
      </trkpt>
      <trkpt lat="35.277195000" lon="-106.475105000">
        <ele>1853.600</ele>
        <time>2013-03-03T19:00:24Z</time>
        <name>WPT.763</name>
      </trkpt>
      <trkpt lat="35.277218000" lon="-106.475136000">
        <ele>1853.600</ele>
        <time>2013-03-03T19:00:28Z</time>
        <name>WPT.764</name>
      </trkpt>
      <trkpt lat="35.277237000" lon="-106.475160000">
        <ele>1853.600</ele>
        <time>2013-03-03T19:00:31Z</time>
        <name>WPT.765</name>
      </trkpt>
      <trkpt lat="35.277264000" lon="-106.475200000">
        <ele>1853.500</ele>
        <time>2013-03-03T19:00:34Z</time>
        <name>WPT.766</name>
      </trkpt>
      <trkpt lat="35.277294000" lon="-106.475210000">
        <ele>1851.700</ele>
        <time>2013-03-03T19:00:37Z</time>
        <name>WPT.767</name>
      </trkpt>
      <trkpt lat="35.277313000" lon="-106.475240000">
        <ele>1851.300</ele>
        <time>2013-03-03T19:00:40Z</time>
        <name>WPT.768</name>
      </trkpt>
      <trkpt lat="35.277336000" lon="-106.475266000">
        <ele>1850.900</ele>
        <time>2013-03-03T19:00:42Z</time>
        <name>WPT.769</name>
      </trkpt>
      <trkpt lat="35.277363000" lon="-106.475296000">
        <ele>1850.700</ele>
        <time>2013-03-03T19:00:45Z</time>
        <name>WPT.770</name>
      </trkpt>
      <trkpt lat="35.277386000" lon="-106.475320000">
        <ele>1849.800</ele>
        <time>2013-03-03T19:00:47Z</time>
        <name>WPT.771</name>
      </trkpt>
      <trkpt lat="35.277412000" lon="-106.475350000">
        <ele>1849.600</ele>
        <time>2013-03-03T19:00:50Z</time>
        <name>WPT.772</name>
      </trkpt>
      <trkpt lat="35.277430000" lon="-106.475380000">
        <ele>1850.600</ele>
        <time>2013-03-03T19:00:52Z</time>
        <name>WPT.773</name>
      </trkpt>
      <trkpt lat="35.277460000" lon="-106.475410000">
        <ele>1850.000</ele>
        <time>2013-03-03T19:00:55Z</time>
        <name>WPT.774</name>
      </trkpt>
      <trkpt lat="35.277485000" lon="-106.475450000">
        <ele>1850.900</ele>
        <time>2013-03-03T19:00:58Z</time>
        <name>WPT.775</name>
      </trkpt>
      <trkpt lat="35.277500000" lon="-106.475490000">
        <ele>1850.000</ele>
        <time>2013-03-03T19:01:01Z</time>
        <name>WPT.776</name>
      </trkpt>
      <trkpt lat="35.277515000" lon="-106.475525000">
        <ele>1849.600</ele>
        <time>2013-03-03T19:01:04Z</time>
        <name>WPT.777</name>
      </trkpt>
      <trkpt lat="35.277530000" lon="-106.475560000">
        <ele>1847.800</ele>
        <time>2013-03-03T19:01:07Z</time>
        <name>WPT.778</name>
      </trkpt>
      <trkpt lat="35.277546000" lon="-106.475590000">
        <ele>1846.900</ele>
        <time>2013-03-03T19:01:10Z</time>
        <name>WPT.779</name>
      </trkpt>
      <trkpt lat="35.277560000" lon="-106.475630000">
        <ele>1846.000</ele>
        <time>2013-03-03T19:01:13Z</time>
        <name>WPT.780</name>
      </trkpt>
      <trkpt lat="35.277570000" lon="-106.475670000">
        <ele>1845.500</ele>
        <time>2013-03-03T19:01:19Z</time>
        <name>WPT.781</name>
      </trkpt>
      <trkpt lat="35.277588000" lon="-106.475720000">
        <ele>1846.200</ele>
        <time>2013-03-03T19:01:22Z</time>
        <name>WPT.782</name>
      </trkpt>
      <trkpt lat="35.277603000" lon="-106.475780000">
        <ele>1844.800</ele>
        <time>2013-03-03T19:01:25Z</time>
        <name>WPT.783</name>
      </trkpt>
      <trkpt lat="35.277607000" lon="-106.475810000">
        <ele>1844.100</ele>
        <time>2013-03-03T19:01:30Z</time>
        <name>WPT.784</name>
      </trkpt>
      <trkpt lat="35.277610000" lon="-106.475860000">
        <ele>1842.900</ele>
        <time>2013-03-03T19:01:37Z</time>
        <name>WPT.785</name>
      </trkpt>
      <trkpt lat="35.277620000" lon="-106.475930000">
        <ele>1843.600</ele>
        <time>2013-03-03T19:01:44Z</time>
        <name>WPT.786</name>
      </trkpt>
      <trkpt lat="35.277622000" lon="-106.475980000">
        <ele>1843.800</ele>
        <time>2013-03-03T19:01:51Z</time>
        <name>WPT.787</name>
      </trkpt>
      <trkpt lat="35.277634000" lon="-106.476030000">
        <ele>1845.200</ele>
        <time>2013-03-03T19:01:53Z</time>
        <name>WPT.788</name>
      </trkpt>
      <trkpt lat="35.277645000" lon="-106.476090000">
        <ele>1844.000</ele>
        <time>2013-03-03T19:01:55Z</time>
        <name>WPT.789</name>
      </trkpt>
      <trkpt lat="35.277660000" lon="-106.476140000">
        <ele>1844.400</ele>
        <time>2013-03-03T19:01:57Z</time>
        <name>WPT.790</name>
      </trkpt>
      <trkpt lat="35.277664000" lon="-106.476200000">
        <ele>1844.000</ele>
        <time>2013-03-03T19:01:59Z</time>
        <name>WPT.791</name>
      </trkpt>
      <trkpt lat="35.277668000" lon="-106.476240000">
        <ele>1844.200</ele>
        <time>2013-03-03T19:02:01Z</time>
        <name>WPT.792</name>
      </trkpt>
      <trkpt lat="35.277687000" lon="-106.476290000">
        <ele>1843.300</ele>
        <time>2013-03-03T19:02:05Z</time>
        <name>WPT.793</name>
      </trkpt>
      <trkpt lat="35.277683000" lon="-106.476330000">
        <ele>1843.300</ele>
        <time>2013-03-03T19:02:08Z</time>
        <name>WPT.794</name>
      </trkpt>
      <trkpt lat="35.277676000" lon="-106.476370000">
        <ele>1843.900</ele>
        <time>2013-03-03T19:02:14Z</time>
        <name>WPT.795</name>
      </trkpt>
      <trkpt lat="35.277668000" lon="-106.476410000">
        <ele>1844.500</ele>
        <time>2013-03-03T19:02:29Z</time>
        <name>WPT.796</name>
      </trkpt>
      <trkpt lat="35.277660000" lon="-106.476440000">
        <ele>1845.300</ele>
        <time>2013-03-03T19:02:35Z</time>
        <name>WPT.797</name>
      </trkpt>
      <trkpt lat="35.277676000" lon="-106.476500000">
        <ele>1843.300</ele>
        <time>2013-03-03T19:02:40Z</time>
        <name>WPT.798</name>
      </trkpt>
      <trkpt lat="35.277687000" lon="-106.476555000">
        <ele>1841.600</ele>
        <time>2013-03-03T19:02:43Z</time>
        <name>WPT.799</name>
      </trkpt>
      <trkpt lat="35.277690000" lon="-106.476585000">
        <ele>1842.900</ele>
        <time>2013-03-03T19:02:45Z</time>
        <name>WPT.800</name>
      </trkpt>
      <trkpt lat="35.277702000" lon="-106.476650000">
        <ele>1842.200</ele>
        <time>2013-03-03T19:02:48Z</time>
        <name>WPT.801</name>
      </trkpt>
      <trkpt lat="35.277710000" lon="-106.476680000">
        <ele>1842.700</ele>
        <time>2013-03-03T19:02:50Z</time>
        <name>WPT.802</name>
      </trkpt>
      <trkpt lat="35.277718000" lon="-106.476730000">
        <ele>1841.700</ele>
        <time>2013-03-03T19:02:53Z</time>
        <name>WPT.803</name>
      </trkpt>
      <trkpt lat="35.277730000" lon="-106.476776000">
        <ele>1842.200</ele>
        <time>2013-03-03T19:02:55Z</time>
        <name>WPT.804</name>
      </trkpt>
      <trkpt lat="35.277733000" lon="-106.476814000">
        <ele>1842.400</ele>
        <time>2013-03-03T19:02:57Z</time>
        <name>WPT.805</name>
      </trkpt>
      <trkpt lat="35.277750000" lon="-106.476860000">
        <ele>1842.900</ele>
        <time>2013-03-03T19:03:00Z</time>
        <name>WPT.806</name>
      </trkpt>
      <trkpt lat="35.277763000" lon="-106.476906000">
        <ele>1842.500</ele>
        <time>2013-03-03T19:03:03Z</time>
        <name>WPT.807</name>
      </trkpt>
      <trkpt lat="35.277767000" lon="-106.476950000">
        <ele>1841.800</ele>
        <time>2013-03-03T19:03:06Z</time>
        <name>WPT.808</name>
      </trkpt>
      <trkpt lat="35.277780000" lon="-106.476990000">
        <ele>1842.500</ele>
        <time>2013-03-03T19:03:10Z</time>
        <name>WPT.809</name>
      </trkpt>
      <trkpt lat="35.277794000" lon="-106.477020000">
        <ele>1842.500</ele>
        <time>2013-03-03T19:03:14Z</time>
        <name>WPT.810</name>
      </trkpt>
      <trkpt lat="35.277810000" lon="-106.477066000">
        <ele>1842.400</ele>
        <time>2013-03-03T19:03:17Z</time>
        <name>WPT.811</name>
      </trkpt>
      <trkpt lat="35.277813000" lon="-106.477104000">
        <ele>1841.600</ele>
        <time>2013-03-03T19:03:20Z</time>
        <name>WPT.812</name>
      </trkpt>
      <trkpt lat="35.277820000" lon="-106.477140000">
        <ele>1840.200</ele>
        <time>2013-03-03T19:03:23Z</time>
        <name>WPT.813</name>
      </trkpt>
      <trkpt lat="35.277830000" lon="-106.477180000">
        <ele>1838.900</ele>
        <time>2013-03-03T19:03:26Z</time>
        <name>WPT.814</name>
      </trkpt>
      <trkpt lat="35.277840000" lon="-106.477220000">
        <ele>1837.500</ele>
        <time>2013-03-03T19:03:29Z</time>
        <name>WPT.815</name>
      </trkpt>
      <trkpt lat="35.277847000" lon="-106.477260000">
        <ele>1837.500</ele>
        <time>2013-03-03T19:03:31Z</time>
        <name>WPT.816</name>
      </trkpt>
      <trkpt lat="35.277855000" lon="-106.477290000">
        <ele>1836.700</ele>
        <time>2013-03-03T19:03:34Z</time>
        <name>WPT.817</name>
      </trkpt>
      <trkpt lat="35.277866000" lon="-106.477330000">
        <ele>1837.900</ele>
        <time>2013-03-03T19:03:37Z</time>
        <name>WPT.818</name>
      </trkpt>
      <trkpt lat="35.277890000" lon="-106.477390000">
        <ele>1837.400</ele>
        <time>2013-03-03T19:03:40Z</time>
        <name>WPT.819</name>
      </trkpt>
      <trkpt lat="35.277916000" lon="-106.477440000">
        <ele>1837.400</ele>
        <time>2013-03-03T19:03:43Z</time>
        <name>WPT.820</name>
      </trkpt>
      <trkpt lat="35.277935000" lon="-106.477486000">
        <ele>1836.400</ele>
        <time>2013-03-03T19:03:46Z</time>
        <name>WPT.821</name>
      </trkpt>
      <trkpt lat="35.277958000" lon="-106.477520000">
        <ele>1835.400</ele>
        <time>2013-03-03T19:03:49Z</time>
        <name>WPT.822</name>
      </trkpt>
      <trkpt lat="35.277980000" lon="-106.477550000">
        <ele>1834.800</ele>
        <time>2013-03-03T19:03:51Z</time>
        <name>WPT.823</name>
      </trkpt>
      <trkpt lat="35.278015000" lon="-106.477585000">
        <ele>1834.100</ele>
        <time>2013-03-03T19:03:54Z</time>
        <name>WPT.824</name>
      </trkpt>
      <trkpt lat="35.278038000" lon="-106.477610000">
        <ele>1834.600</ele>
        <time>2013-03-03T19:03:56Z</time>
        <name>WPT.825</name>
      </trkpt>
      <trkpt lat="35.278072000" lon="-106.477646000">
        <ele>1835.100</ele>
        <time>2013-03-03T19:03:59Z</time>
        <name>WPT.826</name>
      </trkpt>
      <trkpt lat="35.278095000" lon="-106.477670000">
        <ele>1834.700</ele>
        <time>2013-03-03T19:04:01Z</time>
        <name>WPT.827</name>
      </trkpt>
      <trkpt lat="35.278120000" lon="-106.477690000">
        <ele>1834.800</ele>
        <time>2013-03-03T19:04:03Z</time>
        <name>WPT.828</name>
      </trkpt>
      <trkpt lat="35.278137000" lon="-106.477715000">
        <ele>1837.000</ele>
        <time>2013-03-03T19:04:05Z</time>
        <name>WPT.829</name>
      </trkpt>
      <trkpt lat="35.278156000" lon="-106.477745000">
        <ele>1837.600</ele>
        <time>2013-03-03T19:04:07Z</time>
        <name>WPT.830</name>
      </trkpt>
      <trkpt lat="35.278180000" lon="-106.477776000">
        <ele>1837.600</ele>
        <time>2013-03-03T19:04:09Z</time>
        <name>WPT.831</name>
      </trkpt>
      <trkpt lat="35.278202000" lon="-106.477800000">
        <ele>1837.000</ele>
        <time>2013-03-03T19:04:11Z</time>
        <name>WPT.832</name>
      </trkpt>
      <trkpt lat="35.278233000" lon="-106.477830000">
        <ele>1837.200</ele>
        <time>2013-03-03T19:04:14Z</time>
        <name>WPT.833</name>
      </trkpt>
      <trkpt lat="35.278250000" lon="-106.477850000">
        <ele>1837.900</ele>
        <time>2013-03-03T19:04:16Z</time>
        <name>WPT.834</name>
      </trkpt>
      <trkpt lat="35.278286000" lon="-106.477890000">
        <ele>1837.600</ele>
        <time>2013-03-03T19:04:19Z</time>
        <name>WPT.835</name>
      </trkpt>
      <trkpt lat="35.278310000" lon="-106.477910000">
        <ele>1838.300</ele>
        <time>2013-03-03T19:04:21Z</time>
        <name>WPT.836</name>
      </trkpt>
      <trkpt lat="35.278340000" lon="-106.477936000">
        <ele>1837.400</ele>
        <time>2013-03-03T19:04:24Z</time>
        <name>WPT.837</name>
      </trkpt>
      <trkpt lat="35.278362000" lon="-106.477960000">
        <ele>1837.400</ele>
        <time>2013-03-03T19:04:26Z</time>
        <name>WPT.838</name>
      </trkpt>
      <trkpt lat="35.278393000" lon="-106.477980000">
        <ele>1836.800</ele>
        <time>2013-03-03T19:04:29Z</time>
        <name>WPT.839</name>
      </trkpt>
      <trkpt lat="35.278427000" lon="-106.478004000">
        <ele>1836.700</ele>
        <time>2013-03-03T19:04:32Z</time>
        <name>WPT.840</name>
      </trkpt>
      <trkpt lat="35.278450000" lon="-106.478020000">
        <ele>1836.400</ele>
        <time>2013-03-03T19:04:34Z</time>
        <name>WPT.841</name>
      </trkpt>
      <trkpt lat="35.278477000" lon="-106.478035000">
        <ele>1836.600</ele>
        <time>2013-03-03T19:04:36Z</time>
        <name>WPT.842</name>
      </trkpt>
      <trkpt lat="35.278510000" lon="-106.478060000">
        <ele>1836.100</ele>
        <time>2013-03-03T19:04:39Z</time>
        <name>WPT.843</name>
      </trkpt>
      <trkpt lat="35.278545000" lon="-106.478070000">
        <ele>1836.400</ele>
        <time>2013-03-03T19:04:42Z</time>
        <name>WPT.844</name>
      </trkpt>
      <trkpt lat="35.278584000" lon="-106.478096000">
        <ele>1836.100</ele>
        <time>2013-03-03T19:04:45Z</time>
        <name>WPT.845</name>
      </trkpt>
      <trkpt lat="35.278606000" lon="-106.478110000">
        <ele>1836.200</ele>
        <time>2013-03-03T19:04:47Z</time>
        <name>WPT.846</name>
      </trkpt>
      <trkpt lat="35.278633000" lon="-106.478134000">
        <ele>1836.300</ele>
        <time>2013-03-03T19:04:49Z</time>
        <name>WPT.847</name>
      </trkpt>
      <trkpt lat="35.278664000" lon="-106.478165000">
        <ele>1836.100</ele>
        <time>2013-03-03T19:04:52Z</time>
        <name>WPT.848</name>
      </trkpt>
      <trkpt lat="35.278694000" lon="-106.478195000">
        <ele>1835.700</ele>
        <time>2013-03-03T19:04:55Z</time>
        <name>WPT.849</name>
      </trkpt>
      <trkpt lat="35.278717000" lon="-106.478230000">
        <ele>1834.800</ele>
        <time>2013-03-03T19:04:58Z</time>
        <name>WPT.850</name>
      </trkpt>
      <trkpt lat="35.278730000" lon="-106.478270000">
        <ele>1834.700</ele>
        <time>2013-03-03T19:05:01Z</time>
        <name>WPT.851</name>
      </trkpt>
      <trkpt lat="35.278744000" lon="-106.478330000">
        <ele>1836.200</ele>
        <time>2013-03-03T19:05:05Z</time>
        <name>WPT.852</name>
      </trkpt>
      <trkpt lat="35.278763000" lon="-106.478370000">
        <ele>1835.100</ele>
        <time>2013-03-03T19:05:08Z</time>
        <name>WPT.853</name>
      </trkpt>
      <trkpt lat="35.278805000" lon="-106.478390000">
        <ele>1834.700</ele>
        <time>2013-03-03T19:05:12Z</time>
        <name>WPT.854</name>
      </trkpt>
      <trkpt lat="35.278835000" lon="-106.478410000">
        <ele>1834.900</ele>
        <time>2013-03-03T19:05:15Z</time>
        <name>WPT.855</name>
      </trkpt>
      <trkpt lat="35.278866000" lon="-106.478440000">
        <ele>1834.000</ele>
        <time>2013-03-03T19:05:18Z</time>
        <name>WPT.856</name>
      </trkpt>
      <trkpt lat="35.278904000" lon="-106.478455000">
        <ele>1832.100</ele>
        <time>2013-03-03T19:05:22Z</time>
        <name>WPT.857</name>
      </trkpt>
      <trkpt lat="35.278946000" lon="-106.478480000">
        <ele>1830.500</ele>
        <time>2013-03-03T19:05:26Z</time>
        <name>WPT.858</name>
      </trkpt>
      <trkpt lat="35.278973000" lon="-106.478485000">
        <ele>1831.100</ele>
        <time>2013-03-03T19:05:37Z</time>
        <name>WPT.859</name>
      </trkpt>
    </trkseg>
  </trk>
</gpx>
